<?xml version="1.0" encoding="UTF-8" standalone="no" ?>
<gpx xmlns="http://www.topografix.com/GPX/1/1" xmlns:xsi="http://www.w3.org/2001/XMLSchema-instance" xsi:schemaLocation="http://www.topografix.com/GPX/1/1 http://www.topografix.com/GPX/1/1/gpx.xsd" version="1.1" creator="VisuGPX - https://www.visugpx.com">
  <metadata>
    <name>Maroc2011 - D\'ourika à Casablanca</name>
    <desc><![CDATA[La grande traversée ...]]></desc>
  </metadata>
  <trk>
    <name><![CDATA[Ourika Casa]]></name>
    <trkseg>
      <trkpt lat="31.3021" lon="-7.71993">
        <ele>1110.541</ele>
        <time>2011-04-27T07:31:40Z</time>
      </trkpt>
      <trkpt lat="31.3024" lon="-7.72189">
        <ele>1110.461</ele>
        <time>2011-04-27T07:34:05Z</time>
      </trkpt>
      <trkpt lat="31.30096" lon="-7.72367">
        <ele>1111.101</ele>
        <time>2011-04-27T07:34:08Z</time>
      </trkpt>
      <trkpt lat="31.3018" lon="-7.72197">
        <ele>1111.238</ele>
        <time>2011-04-27T07:34:15Z</time>
      </trkpt>
      <trkpt lat="31.30223" lon="-7.72201">
        <ele>1111.833</ele>
        <time>2011-04-27T07:34:19Z</time>
      </trkpt>
      <trkpt lat="31.30414" lon="-7.72371">
        <ele>1106.469</ele>
        <time>2011-04-27T07:35:03Z</time>
      </trkpt>
      <trkpt lat="31.30359" lon="-7.72705">
        <ele>1086.799</ele>
        <time>2011-04-27T07:35:32Z</time>
      </trkpt>
      <trkpt lat="31.30522" lon="-7.72992">
        <ele>1061.072</ele>
        <time>2011-04-27T07:36:00Z</time>
      </trkpt>
      <trkpt lat="31.30662" lon="-7.73745">
        <ele>1042.909</ele>
        <time>2011-04-27T07:37:00Z</time>
      </trkpt>
      <trkpt lat="31.30958" lon="-7.7397">
        <ele>1032.517</ele>
        <time>2011-04-27T07:37:32Z</time>
      </trkpt>
      <trkpt lat="31.30951" lon="-7.74337">
        <ele>1027.878</ele>
        <time>2011-04-27T07:38:00Z</time>
      </trkpt>
      <trkpt lat="31.31005" lon="-7.74464">
        <ele>1024.38</ele>
        <time>2011-04-27T07:38:11Z</time>
      </trkpt>
      <trkpt lat="31.31091" lon="-7.74556">
        <ele>1022.62</ele>
        <time>2011-04-27T07:38:22Z</time>
      </trkpt>
      <trkpt lat="31.31318" lon="-7.74618">
        <ele>1036.526</ele>
        <time>2011-04-27T07:38:41Z</time>
      </trkpt>
      <trkpt lat="31.31362" lon="-7.74675">
        <ele>1039.205</ele>
        <time>2011-04-27T07:38:46Z</time>
      </trkpt>
      <trkpt lat="31.31511" lon="-7.74894">
        <ele>1041.227</ele>
        <time>2011-04-27T07:39:03Z</time>
      </trkpt>
      <trkpt lat="31.31587" lon="-7.75237">
        <ele>1039.103</ele>
        <time>2011-04-27T07:39:25Z</time>
      </trkpt>
      <trkpt lat="31.31656" lon="-7.75329">
        <ele>1031.982</ele>
        <time>2011-04-27T07:39:41Z</time>
      </trkpt>
      <trkpt lat="31.31506" lon="-7.75143">
        <ele>1052.749</ele>
        <time>2011-04-27T07:40:01Z</time>
      </trkpt>
      <trkpt lat="31.3149" lon="-7.74972">
        <ele>1067.094</ele>
        <time>2011-04-27T07:40:13Z</time>
      </trkpt>
      <trkpt lat="31.31468" lon="-7.74918">
        <ele>1070.02</ele>
        <time>2011-04-27T07:40:18Z</time>
      </trkpt>
      <trkpt lat="31.313" lon="-7.74751">
        <ele>1092.307</ele>
        <time>2011-04-27T07:40:34Z</time>
      </trkpt>
      <trkpt lat="31.31261" lon="-7.74714">
        <ele>1094.366</ele>
        <time>2011-04-27T07:40:38Z</time>
      </trkpt>
      <trkpt lat="31.31148" lon="-7.74708">
        <ele>1100.528</ele>
        <time>2011-04-27T07:40:47Z</time>
      </trkpt>
      <trkpt lat="31.31054" lon="-7.74862">
        <ele>1107.109</ele>
        <time>2011-04-27T07:40:58Z</time>
      </trkpt>
      <trkpt lat="31.31029" lon="-7.74916">
        <ele>1108.712</ele>
        <time>2011-04-27T07:41:02Z</time>
      </trkpt>
      <trkpt lat="31.30929" lon="-7.75156">
        <ele>1097.723</ele>
        <time>2011-04-27T07:41:19Z</time>
      </trkpt>
      <trkpt lat="31.3102" lon="-7.75299">
        <ele>1088.795</ele>
        <time>2011-04-27T07:41:33Z</time>
      </trkpt>
      <trkpt lat="31.31017" lon="-7.75571">
        <ele>1081.924</ele>
        <time>2011-04-27T07:41:55Z</time>
      </trkpt>
      <trkpt lat="31.30942" lon="-7.75636">
        <ele>1087.483</ele>
        <time>2011-04-27T07:42:03Z</time>
      </trkpt>
      <trkpt lat="31.3079" lon="-7.75649">
        <ele>1100.927</ele>
        <time>2011-04-27T07:42:16Z</time>
      </trkpt>
      <trkpt lat="31.30748" lon="-7.75674">
        <ele>1102.86</ele>
        <time>2011-04-27T07:42:20Z</time>
      </trkpt>
      <trkpt lat="31.30559" lon="-7.75974">
        <ele>1115.435</ele>
        <time>2011-04-27T07:42:46Z</time>
      </trkpt>
      <trkpt lat="31.30275" lon="-7.76188">
        <ele>1135.776</ele>
        <time>2011-04-27T07:43:14Z</time>
      </trkpt>
      <trkpt lat="31.30177" lon="-7.76384">
        <ele>1157.805</ele>
        <time>2011-04-27T07:43:30Z</time>
      </trkpt>
      <trkpt lat="31.30014" lon="-7.76543">
        <ele>1169.16</ele>
        <time>2011-04-27T07:43:45Z</time>
      </trkpt>
      <trkpt lat="31.29899" lon="-7.76805">
        <ele>1167.852</ele>
        <time>2011-04-27T07:44:05Z</time>
      </trkpt>
      <trkpt lat="31.29771" lon="-7.76912">
        <ele>1173.128</ele>
        <time>2011-04-27T07:44:18Z</time>
      </trkpt>
      <trkpt lat="31.29571" lon="-7.76934">
        <ele>1178.669</ele>
        <time>2011-04-27T07:44:35Z</time>
      </trkpt>
      <trkpt lat="31.29248" lon="-7.77245">
        <ele>1192.039</ele>
        <time>2011-04-27T07:45:10Z</time>
      </trkpt>
      <trkpt lat="31.29184" lon="-7.77438">
        <ele>1200.475</ele>
        <time>2011-04-27T07:45:27Z</time>
      </trkpt>
      <trkpt lat="31.29027" lon="-7.77557">
        <ele>1214.371</ele>
        <time>2011-04-27T07:45:49Z</time>
      </trkpt>
      <trkpt lat="31.28946" lon="-7.7768">
        <ele>1226.62</ele>
        <time>2011-04-27T07:46:02Z</time>
      </trkpt>
      <trkpt lat="31.28853" lon="-7.7769">
        <ele>1238.665</ele>
        <time>2011-04-27T07:46:12Z</time>
      </trkpt>
      <trkpt lat="31.28802" lon="-7.77701">
        <ele>1242.745</ele>
        <time>2011-04-27T07:46:17Z</time>
      </trkpt>
      <trkpt lat="31.28754" lon="-7.7779">
        <ele>1254.763</ele>
        <time>2011-04-27T07:46:26Z</time>
      </trkpt>
      <trkpt lat="31.28663" lon="-7.77882">
        <ele>1265.93</ele>
        <time>2011-04-27T07:46:38Z</time>
      </trkpt>
      <trkpt lat="31.28626" lon="-7.77977">
        <ele>1270.347</ele>
        <time>2011-04-27T07:46:46Z</time>
      </trkpt>
      <trkpt lat="31.28651" lon="-7.78193">
        <ele>1282.013</ele>
        <time>2011-04-27T07:47:04Z</time>
      </trkpt>
      <trkpt lat="31.28609" lon="-7.78237">
        <ele>1286.507</ele>
        <time>2011-04-27T07:47:10Z</time>
      </trkpt>
      <trkpt lat="31.28536" lon="-7.78305">
        <ele>1286.89</ele>
        <time>2011-04-27T07:47:20Z</time>
      </trkpt>
      <trkpt lat="31.28542" lon="-7.7839">
        <ele>1294.137</ele>
        <time>2011-04-27T07:47:26Z</time>
      </trkpt>
      <trkpt lat="31.286" lon="-7.78646">
        <ele>1293.48</ele>
        <time>2011-04-27T07:47:48Z</time>
      </trkpt>
      <trkpt lat="31.28529" lon="-7.78751">
        <ele>1290.991</ele>
        <time>2011-04-27T07:47:59Z</time>
      </trkpt>
      <trkpt lat="31.28543" lon="-7.78978">
        <ele>1294.627</ele>
        <time>2011-04-27T07:48:18Z</time>
      </trkpt>
      <trkpt lat="31.28478" lon="-7.7923">
        <ele>1297.566</ele>
        <time>2011-04-27T07:48:39Z</time>
      </trkpt>
      <trkpt lat="31.28501" lon="-7.79393">
        <ele>1304.957</ele>
        <time>2011-04-27T07:48:54Z</time>
      </trkpt>
      <trkpt lat="31.28064" lon="-7.80591">
        <ele>1375.432</ele>
        <time>2011-04-27T07:51:28Z</time>
      </trkpt>
      <trkpt lat="31.27863" lon="-7.80891">
        <ele>1398.508</ele>
        <time>2011-04-27T07:51:59Z</time>
      </trkpt>
      <trkpt lat="31.27735" lon="-7.80961">
        <ele>1411.302</ele>
        <time>2011-04-27T07:52:15Z</time>
      </trkpt>
      <trkpt lat="31.27513" lon="-7.81077">
        <ele>1423.179</ele>
        <time>2011-04-27T07:53:05Z</time>
      </trkpt>
      <trkpt lat="31.27322" lon="-7.81257">
        <ele>1435.726</ele>
        <time>2011-04-27T07:53:28Z</time>
      </trkpt>
      <trkpt lat="31.2701" lon="-7.81283">
        <ele>1459.727</ele>
        <time>2011-04-27T07:53:58Z</time>
      </trkpt>
      <trkpt lat="31.26891" lon="-7.81358">
        <ele>1472.25</ele>
        <time>2011-04-27T07:54:09Z</time>
      </trkpt>
      <trkpt lat="31.26469" lon="-7.8192">
        <ele>1521.977</ele>
        <time>2011-04-27T07:55:00Z</time>
      </trkpt>
      <trkpt lat="31.26428" lon="-7.82022">
        <ele>1528.051</ele>
        <time>2011-04-27T07:55:08Z</time>
      </trkpt>
      <trkpt lat="31.26427" lon="-7.82134">
        <ele>1534.654</ele>
        <time>2011-04-27T07:55:21Z</time>
      </trkpt>
      <trkpt lat="31.26584" lon="-7.82196">
        <ele>1553.42</ele>
        <time>2011-04-27T07:55:38Z</time>
      </trkpt>
      <trkpt lat="31.26616" lon="-7.82279">
        <ele>1565.401</ele>
        <time>2011-04-27T07:55:51Z</time>
      </trkpt>
      <trkpt lat="31.26547" lon="-7.82552">
        <ele>1591.593</ele>
        <time>2011-04-27T07:56:16Z</time>
      </trkpt>
      <trkpt lat="31.26657" lon="-7.8264">
        <ele>1607.23</ele>
        <time>2011-04-27T07:56:36Z</time>
      </trkpt>
      <trkpt lat="31.26659" lon="-7.82676">
        <ele>1609.386</ele>
        <time>2011-04-27T07:56:42Z</time>
      </trkpt>
      <trkpt lat="31.26597" lon="-7.82723">
        <ele>1618.865</ele>
        <time>2011-04-27T07:56:51Z</time>
      </trkpt>
      <trkpt lat="31.26555" lon="-7.82779">
        <ele>1625.097</ele>
        <time>2011-04-27T07:56:58Z</time>
      </trkpt>
      <trkpt lat="31.26489" lon="-7.8297">
        <ele>1642.032</ele>
        <time>2011-04-27T07:57:16Z</time>
      </trkpt>
      <trkpt lat="31.26519" lon="-7.82975">
        <ele>1648.177</ele>
        <time>2011-04-27T07:57:25Z</time>
      </trkpt>
      <trkpt lat="31.26543" lon="-7.82946">
        <ele>1651.507</ele>
        <time>2011-04-27T07:57:28Z</time>
      </trkpt>
      <trkpt lat="31.26609" lon="-7.82864">
        <ele>1657.759</ele>
        <time>2011-04-27T07:57:39Z</time>
      </trkpt>
      <trkpt lat="31.26636" lon="-7.82881">
        <ele>1661.137</ele>
        <time>2011-04-27T07:57:46Z</time>
      </trkpt>
      <trkpt lat="31.26613" lon="-7.83099">
        <ele>1677.581</ele>
        <time>2011-04-27T07:58:03Z</time>
      </trkpt>
      <trkpt lat="31.26557" lon="-7.83161">
        <ele>1681.448</ele>
        <time>2011-04-27T07:58:17Z</time>
      </trkpt>
      <trkpt lat="31.26644" lon="-7.83107">
        <ele>1687.867</ele>
        <time>2011-04-27T07:58:27Z</time>
      </trkpt>
      <trkpt lat="31.26762" lon="-7.82935">
        <ele>1700.147</ele>
        <time>2011-04-27T07:58:46Z</time>
      </trkpt>
      <trkpt lat="31.26733" lon="-7.8301">
        <ele>1709.326</ele>
        <time>2011-04-27T07:58:56Z</time>
      </trkpt>
      <trkpt lat="31.26684" lon="-7.83368">
        <ele>1723.642</ele>
        <time>2011-04-27T07:59:34Z</time>
      </trkpt>
      <trkpt lat="31.26641" lon="-7.83424">
        <ele>1724.659</ele>
        <time>2011-04-27T07:59:45Z</time>
      </trkpt>
      <trkpt lat="31.26528" lon="-7.83447">
        <ele>1732.693</ele>
        <time>2011-04-27T08:01:11Z</time>
      </trkpt>
      <trkpt lat="31.26482" lon="-7.83466">
        <ele>1733.94</ele>
        <time>2011-04-27T08:01:14Z</time>
      </trkpt>
      <trkpt lat="31.26443" lon="-7.83654">
        <ele>1737.044</ele>
        <time>2011-04-27T08:01:31Z</time>
      </trkpt>
      <trkpt lat="31.26365" lon="-7.83774">
        <ele>1746.267</ele>
        <time>2011-04-27T08:01:39Z</time>
      </trkpt>
      <trkpt lat="31.2629" lon="-7.83942">
        <ele>1743.34</ele>
        <time>2011-04-27T08:01:50Z</time>
      </trkpt>
      <trkpt lat="31.26136" lon="-7.83806">
        <ele>1741.2</ele>
        <time>2011-04-27T08:02:25Z</time>
      </trkpt>
      <trkpt lat="31.26089" lon="-7.83672">
        <ele>1750.931</ele>
        <time>2011-04-27T08:02:40Z</time>
      </trkpt>
      <trkpt lat="31.26046" lon="-7.83628">
        <ele>1754.15</ele>
        <time>2011-04-27T08:02:47Z</time>
      </trkpt>
      <trkpt lat="31.25997" lon="-7.83613">
        <ele>1755.373</ele>
        <time>2011-04-27T08:03:00Z</time>
      </trkpt>
      <trkpt lat="31.26079" lon="-7.83704">
        <ele>1762.499</ele>
        <time>2011-04-27T08:03:13Z</time>
      </trkpt>
      <trkpt lat="31.26059" lon="-7.83811">
        <ele>1771.098</ele>
        <time>2011-04-27T08:03:22Z</time>
      </trkpt>
      <trkpt lat="31.26118" lon="-7.84026">
        <ele>1785.224</ele>
        <time>2011-04-27T08:03:47Z</time>
      </trkpt>
      <trkpt lat="31.26027" lon="-7.84109">
        <ele>1792.597</ele>
        <time>2011-04-27T08:04:00Z</time>
      </trkpt>
      <trkpt lat="31.2601" lon="-7.84107">
        <ele>1792.948</ele>
        <time>2011-04-27T08:04:02Z</time>
      </trkpt>
      <trkpt lat="31.25873" lon="-7.84287">
        <ele>1791.987</ele>
        <time>2011-04-27T08:04:23Z</time>
      </trkpt>
      <trkpt lat="31.25889" lon="-7.84442">
        <ele>1791.498</ele>
        <time>2011-04-27T08:04:36Z</time>
      </trkpt>
      <trkpt lat="31.2586" lon="-7.84464">
        <ele>1790.451</ele>
        <time>2011-04-27T08:04:42Z</time>
      </trkpt>
      <trkpt lat="31.25819" lon="-7.84397">
        <ele>1794.451</ele>
        <time>2011-04-27T08:04:50Z</time>
      </trkpt>
      <trkpt lat="31.25687" lon="-7.8437">
        <ele>1800.564</ele>
        <time>2011-04-27T08:05:08Z</time>
      </trkpt>
      <trkpt lat="31.25528" lon="-7.84611">
        <ele>1822.008</ele>
        <time>2011-04-27T08:05:36Z</time>
      </trkpt>
      <trkpt lat="31.25418" lon="-7.84854">
        <ele>1836.985</ele>
        <time>2011-04-27T08:06:03Z</time>
      </trkpt>
      <trkpt lat="31.25246" lon="-7.84896">
        <ele>1846.944</ele>
        <time>2011-04-27T08:06:20Z</time>
      </trkpt>
      <trkpt lat="31.25221" lon="-7.85134">
        <ele>1850.949</ele>
        <time>2011-04-27T08:06:48Z</time>
      </trkpt>
      <trkpt lat="31.25132" lon="-7.85154">
        <ele>1858.531</ele>
        <time>2011-04-27T08:06:57Z</time>
      </trkpt>
      <trkpt lat="31.2487" lon="-7.85256">
        <ele>1860.294</ele>
        <time>2011-04-27T08:07:35Z</time>
      </trkpt>
      <trkpt lat="31.24919" lon="-7.85377">
        <ele>1859.162</ele>
        <time>2011-04-27T08:07:50Z</time>
      </trkpt>
      <trkpt lat="31.25024" lon="-7.85495">
        <ele>1851.969</ele>
        <time>2011-04-27T08:08:09Z</time>
      </trkpt>
      <trkpt lat="31.24972" lon="-7.85532">
        <ele>1851.992</ele>
        <time>2011-04-27T08:08:16Z</time>
      </trkpt>
      <trkpt lat="31.24986" lon="-7.85679">
        <ele>1847.646</ele>
        <time>2011-04-27T08:08:34Z</time>
      </trkpt>
      <trkpt lat="31.24944" lon="-7.85722">
        <ele>1845.151</ele>
        <time>2011-04-27T08:08:40Z</time>
      </trkpt>
      <trkpt lat="31.24876" lon="-7.8583">
        <ele>1834.986</ele>
        <time>2011-04-27T08:08:56Z</time>
      </trkpt>
      <trkpt lat="31.24932" lon="-7.85953">
        <ele>1845.793</ele>
        <time>2011-04-27T08:11:55Z</time>
      </trkpt>
      <trkpt lat="31.24885" lon="-7.8637">
        <ele>1805.785</ele>
        <time>2011-04-27T08:12:51Z</time>
      </trkpt>
      <trkpt lat="31.2471" lon="-7.86392">
        <ele>1800.477</ele>
        <time>2011-04-27T08:13:23Z</time>
      </trkpt>
      <trkpt lat="31.24577" lon="-7.86654">
        <ele>1790.983</ele>
        <time>2011-04-27T08:14:20Z</time>
      </trkpt>
      <trkpt lat="31.24391" lon="-7.86529">
        <ele>1784.696</ele>
        <time>2011-04-27T08:14:45Z</time>
      </trkpt>
      <trkpt lat="31.24297" lon="-7.86522">
        <ele>1783.451</ele>
        <time>2011-04-27T08:14:54Z</time>
      </trkpt>
      <trkpt lat="31.24144" lon="-7.86556">
        <ele>1779.061</ele>
        <time>2011-04-27T08:15:10Z</time>
      </trkpt>
      <trkpt lat="31.24035" lon="-7.86549">
        <ele>1771.817</ele>
        <time>2011-04-27T08:15:42Z</time>
      </trkpt>
      <trkpt lat="31.24043" lon="-7.86615">
        <ele>1774.653</ele>
        <time>2011-04-27T08:15:50Z</time>
      </trkpt>
      <trkpt lat="31.24116" lon="-7.86663">
        <ele>1780.501</ele>
        <time>2011-04-27T08:16:03Z</time>
      </trkpt>
      <trkpt lat="31.24316" lon="-7.8673">
        <ele>1786.907</ele>
        <time>2011-04-27T08:16:47Z</time>
      </trkpt>
      <trkpt lat="31.24321" lon="-7.87025">
        <ele>1788.707</ele>
        <time>2011-04-27T08:17:14Z</time>
      </trkpt>
      <trkpt lat="31.24284" lon="-7.87148">
        <ele>1785.345</ele>
        <time>2011-04-27T08:17:25Z</time>
      </trkpt>
      <trkpt lat="31.24221" lon="-7.87202">
        <ele>1784.833</ele>
        <time>2011-04-27T08:17:34Z</time>
      </trkpt>
      <trkpt lat="31.24167" lon="-7.87245">
        <ele>1782.089</ele>
        <time>2011-04-27T08:17:44Z</time>
      </trkpt>
      <trkpt lat="31.24183" lon="-7.874">
        <ele>1782.489</ele>
        <time>2011-04-27T08:17:58Z</time>
      </trkpt>
      <trkpt lat="31.24149" lon="-7.87501">
        <ele>1778.534</ele>
        <time>2011-04-27T08:18:08Z</time>
      </trkpt>
      <trkpt lat="31.24007" lon="-7.8753">
        <ele>1770.647</ele>
        <time>2011-04-27T08:18:30Z</time>
      </trkpt>
      <trkpt lat="31.24029" lon="-7.87772">
        <ele>1767.153</ele>
        <time>2011-04-27T08:19:02Z</time>
      </trkpt>
      <trkpt lat="31.23778" lon="-7.87972">
        <ele>1754.005</ele>
        <time>2011-04-27T08:22:01Z</time>
      </trkpt>
      <trkpt lat="31.23595" lon="-7.8795">
        <ele>1743.215</ele>
        <time>2011-04-27T08:22:31Z</time>
      </trkpt>
      <trkpt lat="31.23434" lon="-7.87992">
        <ele>1745.275</ele>
        <time>2011-04-27T08:22:54Z</time>
      </trkpt>
      <trkpt lat="31.2338" lon="-7.88">
        <ele>1742.863</ele>
        <time>2011-04-27T08:23:12Z</time>
      </trkpt>
      <trkpt lat="31.23422" lon="-7.88085">
        <ele>1746.405</ele>
        <time>2011-04-27T08:23:43Z</time>
      </trkpt>
      <trkpt lat="31.23554" lon="-7.88156">
        <ele>1758.712</ele>
        <time>2011-04-27T08:24:45Z</time>
      </trkpt>
      <trkpt lat="31.23598" lon="-7.88231">
        <ele>1762.874</ele>
        <time>2011-04-27T08:24:55Z</time>
      </trkpt>
      <trkpt lat="31.2354" lon="-7.88566">
        <ele>1786.413</ele>
        <time>2011-04-27T08:25:39Z</time>
      </trkpt>
      <trkpt lat="31.23484" lon="-7.88625">
        <ele>1794.788</ele>
        <time>2011-04-27T08:25:50Z</time>
      </trkpt>
      <trkpt lat="31.23528" lon="-7.88867">
        <ele>1804.1</ele>
        <time>2011-04-27T08:26:22Z</time>
      </trkpt>
      <trkpt lat="31.23586" lon="-7.889">
        <ele>1805.063</ele>
        <time>2011-04-27T08:26:36Z</time>
      </trkpt>
      <trkpt lat="31.23621" lon="-7.89038">
        <ele>1807.161</ele>
        <time>2011-04-27T08:26:52Z</time>
      </trkpt>
      <trkpt lat="31.23625" lon="-7.89045">
        <ele>1806.95</ele>
        <time>2011-04-27T08:26:54Z</time>
      </trkpt>
      <trkpt lat="31.237" lon="-7.89047">
        <ele>1810.911</ele>
        <time>2011-04-27T08:27:08Z</time>
      </trkpt>
      <trkpt lat="31.23773" lon="-7.89166">
        <ele>1811.31</ele>
        <time>2011-04-27T08:27:24Z</time>
      </trkpt>
      <trkpt lat="31.23898" lon="-7.89215">
        <ele>1815.202</ele>
        <time>2011-04-27T08:27:42Z</time>
      </trkpt>
      <trkpt lat="31.23845" lon="-7.89342">
        <ele>1808.969</ele>
        <time>2011-04-27T08:27:55Z</time>
      </trkpt>
      <trkpt lat="31.23854" lon="-7.89465">
        <ele>1801.765</ele>
        <time>2011-04-27T08:28:10Z</time>
      </trkpt>
      <trkpt lat="31.23787" lon="-7.89503">
        <ele>1800.523</ele>
        <time>2011-04-27T08:28:21Z</time>
      </trkpt>
      <trkpt lat="31.23773" lon="-7.89571">
        <ele>1798.621</ele>
        <time>2011-04-27T08:28:26Z</time>
      </trkpt>
      <trkpt lat="31.23676" lon="-7.89848">
        <ele>1781.808</ele>
        <time>2011-04-27T08:28:56Z</time>
      </trkpt>
      <trkpt lat="31.2351" lon="-7.89946">
        <ele>1773.378</ele>
        <time>2011-04-27T08:29:20Z</time>
      </trkpt>
      <trkpt lat="31.23499" lon="-7.89978">
        <ele>1771.773</ele>
        <time>2011-04-27T08:29:29Z</time>
      </trkpt>
      <trkpt lat="31.23748" lon="-7.90059">
        <ele>1774.015</ele>
        <time>2011-04-27T08:30:04Z</time>
      </trkpt>
      <trkpt lat="31.23934" lon="-7.89918">
        <ele>1784.82</ele>
        <time>2011-04-27T08:30:25Z</time>
      </trkpt>
      <trkpt lat="31.24027" lon="-7.89928">
        <ele>1792.434</ele>
        <time>2011-04-27T08:30:34Z</time>
      </trkpt>
      <trkpt lat="31.24052" lon="-7.89939">
        <ele>1793.013</ele>
        <time>2011-04-27T08:30:36Z</time>
      </trkpt>
      <trkpt lat="31.24216" lon="-7.901">
        <ele>1802.376</ele>
        <time>2011-04-27T08:30:52Z</time>
      </trkpt>
      <trkpt lat="31.24284" lon="-7.90299">
        <ele>1812.357</ele>
        <time>2011-04-27T08:31:07Z</time>
      </trkpt>
      <trkpt lat="31.24315" lon="-7.90342">
        <ele>1814.233</ele>
        <time>2011-04-27T08:31:11Z</time>
      </trkpt>
      <trkpt lat="31.24388" lon="-7.90371">
        <ele>1818.262</ele>
        <time>2011-04-27T08:31:18Z</time>
      </trkpt>
      <trkpt lat="31.24422" lon="-7.90427">
        <ele>1820.334</ele>
        <time>2011-04-27T08:31:25Z</time>
      </trkpt>
      <trkpt lat="31.24401" lon="-7.90583">
        <ele>1820.351</ele>
        <time>2011-04-27T08:31:35Z</time>
      </trkpt>
      <trkpt lat="31.24322" lon="-7.90638">
        <ele>1818.032</ele>
        <time>2011-04-27T08:31:45Z</time>
      </trkpt>
      <trkpt lat="31.24303" lon="-7.90744">
        <ele>1817.373</ele>
        <time>2011-04-27T08:31:59Z</time>
      </trkpt>
      <trkpt lat="31.24403" lon="-7.9078">
        <ele>1818.115</ele>
        <time>2011-04-27T08:32:15Z</time>
      </trkpt>
      <trkpt lat="31.24346" lon="-7.9086">
        <ele>1819.888</ele>
        <time>2011-04-27T08:32:25Z</time>
      </trkpt>
      <trkpt lat="31.24369" lon="-7.9091">
        <ele>1822.018</ele>
        <time>2011-04-27T08:32:31Z</time>
      </trkpt>
      <trkpt lat="31.24327" lon="-7.91427">
        <ele>1822.508</ele>
        <time>2011-04-27T08:33:09Z</time>
      </trkpt>
      <trkpt lat="31.24347" lon="-7.91458">
        <ele>1821.194</ele>
        <time>2011-04-27T08:33:13Z</time>
      </trkpt>
      <trkpt lat="31.24247" lon="-7.91573">
        <ele>1820.47</ele>
        <time>2011-04-27T08:33:31Z</time>
      </trkpt>
      <trkpt lat="31.24163" lon="-7.91877">
        <ele>1821.132</ele>
        <time>2011-04-27T08:34:35Z</time>
      </trkpt>
      <trkpt lat="31.24162" lon="-7.91913">
        <ele>1821.029</ele>
        <time>2011-04-27T08:34:38Z</time>
      </trkpt>
      <trkpt lat="31.24223" lon="-7.92277">
        <ele>1809.032</ele>
        <time>2011-04-27T08:35:14Z</time>
      </trkpt>
      <trkpt lat="31.24165" lon="-7.92332">
        <ele>1809.785</ele>
        <time>2011-04-27T08:35:22Z</time>
      </trkpt>
      <trkpt lat="31.24076" lon="-7.92594">
        <ele>1809.89</ele>
        <time>2011-04-27T08:35:44Z</time>
      </trkpt>
      <trkpt lat="31.23991" lon="-7.92711">
        <ele>1808.796</ele>
        <time>2011-04-27T08:35:58Z</time>
      </trkpt>
      <trkpt lat="31.23903" lon="-7.92849">
        <ele>1802.49</ele>
        <time>2011-04-27T08:36:12Z</time>
      </trkpt>
      <trkpt lat="31.23818" lon="-7.92966">
        <ele>1791.632</ele>
        <time>2011-04-27T08:36:25Z</time>
      </trkpt>
      <trkpt lat="31.2373" lon="-7.92961">
        <ele>1785.539</ele>
        <time>2011-04-27T08:36:35Z</time>
      </trkpt>
      <trkpt lat="31.23516" lon="-7.93277">
        <ele>1760.334</ele>
        <time>2011-04-27T08:37:11Z</time>
      </trkpt>
      <trkpt lat="31.23419" lon="-7.93351">
        <ele>1752.752</ele>
        <time>2011-04-27T08:37:23Z</time>
      </trkpt>
      <trkpt lat="31.2341" lon="-7.93416">
        <ele>1747.269</ele>
        <time>2011-04-27T08:37:30Z</time>
      </trkpt>
      <trkpt lat="31.23481" lon="-7.93492">
        <ele>1740.701</ele>
        <time>2011-04-27T08:37:40Z</time>
      </trkpt>
      <trkpt lat="31.235" lon="-7.93539">
        <ele>1735.036</ele>
        <time>2011-04-27T08:37:53Z</time>
      </trkpt>
      <trkpt lat="31.23294" lon="-7.93553">
        <ele>1725.539</ele>
        <time>2011-04-27T08:38:10Z</time>
      </trkpt>
      <trkpt lat="31.23112" lon="-7.93486">
        <ele>1709.064</ele>
        <time>2011-04-27T08:38:28Z</time>
      </trkpt>
      <trkpt lat="31.23049" lon="-7.93524">
        <ele>1703.654</ele>
        <time>2011-04-27T08:38:35Z</time>
      </trkpt>
      <trkpt lat="31.22965" lon="-7.93684">
        <ele>1690.277</ele>
        <time>2011-04-27T08:38:51Z</time>
      </trkpt>
      <trkpt lat="31.23065" lon="-7.93785">
        <ele>1677.681</ele>
        <time>2011-04-27T08:39:08Z</time>
      </trkpt>
      <trkpt lat="31.23045" lon="-7.93814">
        <ele>1675</ele>
        <time>2011-04-27T08:39:14Z</time>
      </trkpt>
      <trkpt lat="31.22901" lon="-7.93848">
        <ele>1666.5</ele>
        <time>2011-04-27T08:39:33Z</time>
      </trkpt>
      <trkpt lat="31.22689" lon="-7.93984">
        <ele>1646.921</ele>
        <time>2011-04-27T08:39:59Z</time>
      </trkpt>
      <trkpt lat="31.22549" lon="-7.94148">
        <ele>1632.768</ele>
        <time>2011-04-27T08:40:17Z</time>
      </trkpt>
      <trkpt lat="31.22536" lon="-7.94217">
        <ele>1625.398</ele>
        <time>2011-04-27T08:40:24Z</time>
      </trkpt>
      <trkpt lat="31.22641" lon="-7.94244">
        <ele>1615.188</ele>
        <time>2011-04-27T08:40:42Z</time>
      </trkpt>
      <trkpt lat="31.2235" lon="-7.94363">
        <ele>1595.756</ele>
        <time>2011-04-27T08:41:13Z</time>
      </trkpt>
      <trkpt lat="31.22245" lon="-7.94552">
        <ele>1581.047</ele>
        <time>2011-04-27T08:41:31Z</time>
      </trkpt>
      <trkpt lat="31.22301" lon="-7.94602">
        <ele>1574.789</ele>
        <time>2011-04-27T08:41:43Z</time>
      </trkpt>
      <trkpt lat="31.22172" lon="-7.94726">
        <ele>1574.275</ele>
        <time>2011-04-27T08:42:02Z</time>
      </trkpt>
      <trkpt lat="31.2208" lon="-7.94939">
        <ele>1569.449</ele>
        <time>2011-04-27T08:42:33Z</time>
      </trkpt>
      <trkpt lat="31.22204" lon="-7.9516">
        <ele>1558.882</ele>
        <time>2011-04-27T08:43:11Z</time>
      </trkpt>
      <trkpt lat="31.22195" lon="-7.95268">
        <ele>1546.607</ele>
        <time>2011-04-27T08:43:22Z</time>
      </trkpt>
      <trkpt lat="31.22155" lon="-7.95139">
        <ele>1530.688</ele>
        <time>2011-04-27T08:52:49Z</time>
      </trkpt>
      <trkpt lat="31.22008" lon="-7.94977">
        <ele>1513.878</ele>
        <time>2011-04-27T08:53:13Z</time>
      </trkpt>
      <trkpt lat="31.22078" lon="-7.95118">
        <ele>1506.33</ele>
        <time>2011-04-27T08:53:29Z</time>
      </trkpt>
      <trkpt lat="31.22093" lon="-7.95269">
        <ele>1495.752</ele>
        <time>2011-04-27T08:53:43Z</time>
      </trkpt>
      <trkpt lat="31.21993" lon="-7.95272">
        <ele>1484.403</ele>
        <time>2011-04-27T08:53:57Z</time>
      </trkpt>
      <trkpt lat="31.22261" lon="-7.95981">
        <ele>1436.658</ele>
        <time>2011-04-27T08:54:51Z</time>
      </trkpt>
      <trkpt lat="31.22377" lon="-7.96033">
        <ele>1429.758</ele>
        <time>2011-04-27T08:55:01Z</time>
      </trkpt>
      <trkpt lat="31.22593" lon="-7.96057">
        <ele>1409.102</ele>
        <time>2011-04-27T08:55:20Z</time>
      </trkpt>
      <trkpt lat="31.22601" lon="-7.96241">
        <ele>1394.25</ele>
        <time>2011-04-27T08:55:41Z</time>
      </trkpt>
      <trkpt lat="31.22662" lon="-7.96249">
        <ele>1389.971</ele>
        <time>2011-04-27T08:55:48Z</time>
      </trkpt>
      <trkpt lat="31.22765" lon="-7.96423">
        <ele>1378.22</ele>
        <time>2011-04-27T08:56:06Z</time>
      </trkpt>
      <trkpt lat="31.2286" lon="-7.96453">
        <ele>1374.766</ele>
        <time>2011-04-27T08:56:15Z</time>
      </trkpt>
      <trkpt lat="31.22882" lon="-7.96465">
        <ele>1371.574</ele>
        <time>2011-04-27T08:56:18Z</time>
      </trkpt>
      <trkpt lat="31.22844" lon="-7.96535">
        <ele>1365.453</ele>
        <time>2011-04-27T08:56:28Z</time>
      </trkpt>
      <trkpt lat="31.22793" lon="-7.96532">
        <ele>1363.325</ele>
        <time>2011-04-27T08:56:32Z</time>
      </trkpt>
      <trkpt lat="31.22677" lon="-7.96499">
        <ele>1354.008</ele>
        <time>2011-04-27T08:56:43Z</time>
      </trkpt>
      <trkpt lat="31.22656" lon="-7.9652">
        <ele>1347.653</ele>
        <time>2011-04-27T08:56:53Z</time>
      </trkpt>
      <trkpt lat="31.22946" lon="-7.96613">
        <ele>1327.035</ele>
        <time>2011-04-27T08:57:27Z</time>
      </trkpt>
      <trkpt lat="31.22939" lon="-7.96736">
        <ele>1319.756</ele>
        <time>2011-04-27T08:57:41Z</time>
      </trkpt>
      <trkpt lat="31.23095" lon="-7.96824">
        <ele>1307.024</ele>
        <time>2011-04-27T08:58:02Z</time>
      </trkpt>
      <trkpt lat="31.23198" lon="-7.96972">
        <ele>1298.522</ele>
        <time>2011-04-27T08:58:19Z</time>
      </trkpt>
      <trkpt lat="31.23294" lon="-7.97076">
        <ele>1289.696</ele>
        <time>2011-04-27T08:58:34Z</time>
      </trkpt>
      <trkpt lat="31.23401" lon="-7.97129">
        <ele>1279.136</ele>
        <time>2011-04-27T08:58:50Z</time>
      </trkpt>
      <trkpt lat="31.2342" lon="-7.97251">
        <ele>1276.073</ele>
        <time>2011-04-27T08:59:02Z</time>
      </trkpt>
      <trkpt lat="31.23533" lon="-7.9737">
        <ele>1265.627</ele>
        <time>2011-04-27T08:59:18Z</time>
      </trkpt>
      <trkpt lat="31.23733" lon="-7.97459">
        <ele>1248.592</ele>
        <time>2011-04-27T08:59:44Z</time>
      </trkpt>
      <trkpt lat="31.2385" lon="-7.97427">
        <ele>1240.871</ele>
        <time>2011-04-27T08:59:55Z</time>
      </trkpt>
      <trkpt lat="31.239" lon="-7.9758">
        <ele>1232.592</ele>
        <time>2011-04-27T09:00:23Z</time>
      </trkpt>
      <trkpt lat="31.24104" lon="-7.97518">
        <ele>1219.891</ele>
        <time>2011-04-27T09:00:46Z</time>
      </trkpt>
      <trkpt lat="31.2415" lon="-7.97462">
        <ele>1213.19</ele>
        <time>2011-04-27T09:00:56Z</time>
      </trkpt>
      <trkpt lat="31.24366" lon="-7.97526">
        <ele>1203.99</ele>
        <time>2011-04-27T09:01:21Z</time>
      </trkpt>
      <trkpt lat="31.2448" lon="-7.97498">
        <ele>1193.959</ele>
        <time>2011-04-27T09:01:34Z</time>
      </trkpt>
      <trkpt lat="31.24482" lon="-7.97686">
        <ele>1192.27</ele>
        <time>2011-04-27T09:02:00Z</time>
      </trkpt>
      <trkpt lat="31.24555" lon="-7.97732">
        <ele>1192.343</ele>
        <time>2011-04-27T09:02:08Z</time>
      </trkpt>
      <trkpt lat="31.24636" lon="-7.9786">
        <ele>1190.612</ele>
        <time>2011-04-27T09:02:26Z</time>
      </trkpt>
      <trkpt lat="31.24813" lon="-7.97906">
        <ele>1189.761</ele>
        <time>2011-04-27T09:02:49Z</time>
      </trkpt>
      <trkpt lat="31.24871" lon="-7.9807">
        <ele>1190.876</ele>
        <time>2011-04-27T09:03:18Z</time>
      </trkpt>
      <trkpt lat="31.24947" lon="-7.97924">
        <ele>1186.741</ele>
        <time>2011-04-27T09:03:37Z</time>
      </trkpt>
      <trkpt lat="31.25247" lon="-7.97675">
        <ele>1177.62</ele>
        <time>2011-04-27T09:04:13Z</time>
      </trkpt>
      <trkpt lat="31.26243" lon="-7.97153">
        <ele>1155.217</ele>
        <time>2011-04-27T09:05:27Z</time>
      </trkpt>
      <trkpt lat="31.26349" lon="-7.9702">
        <ele>1153.021</ele>
        <time>2011-04-27T09:05:36Z</time>
      </trkpt>
      <trkpt lat="31.26548" lon="-7.96771">
        <ele>1141.429</ele>
        <time>2011-04-27T09:05:52Z</time>
      </trkpt>
      <trkpt lat="31.26635" lon="-7.96705">
        <ele>1138.165</ele>
        <time>2011-04-27T09:05:59Z</time>
      </trkpt>
      <trkpt lat="31.26897" lon="-7.96662">
        <ele>1133.491</ele>
        <time>2011-04-27T09:06:13Z</time>
      </trkpt>
      <trkpt lat="31.27115" lon="-7.96538">
        <ele>1130.419</ele>
        <time>2011-04-27T09:06:25Z</time>
      </trkpt>
      <trkpt lat="31.27731" lon="-7.96258">
        <ele>1114.752</ele>
        <time>2011-04-27T09:06:59Z</time>
      </trkpt>
      <trkpt lat="31.27958" lon="-7.96175">
        <ele>1103</ele>
        <time>2011-04-27T09:07:11Z</time>
      </trkpt>
      <trkpt lat="31.28223" lon="-7.95968">
        <ele>1094.063</ele>
        <time>2011-04-27T09:07:35Z</time>
      </trkpt>
      <trkpt lat="31.28636" lon="-7.95972">
        <ele>1089.065</ele>
        <time>2011-04-27T09:07:57Z</time>
      </trkpt>
      <trkpt lat="31.29165" lon="-7.96309">
        <ele>1073.157</ele>
        <time>2011-04-27T09:08:35Z</time>
      </trkpt>
      <trkpt lat="31.29228" lon="-7.96415">
        <ele>1071.063</ele>
        <time>2011-04-27T09:08:43Z</time>
      </trkpt>
      <trkpt lat="31.29185" lon="-7.96593">
        <ele>1078.885</ele>
        <time>2011-04-27T09:08:54Z</time>
      </trkpt>
      <trkpt lat="31.2933" lon="-7.9672">
        <ele>1085.981</ele>
        <time>2011-04-27T09:09:17Z</time>
      </trkpt>
      <trkpt lat="31.29356" lon="-7.9673">
        <ele>1086.008</ele>
        <time>2011-04-27T09:09:19Z</time>
      </trkpt>
      <trkpt lat="31.29389" lon="-7.96729">
        <ele>1083.823</ele>
        <time>2011-04-27T09:09:23Z</time>
      </trkpt>
      <trkpt lat="31.29423" lon="-7.96659">
        <ele>1083.528</ele>
        <time>2011-04-27T09:09:33Z</time>
      </trkpt>
      <trkpt lat="31.29557" lon="-7.96642">
        <ele>1085.685</ele>
        <time>2011-04-27T09:09:48Z</time>
      </trkpt>
      <trkpt lat="31.2968" lon="-7.96561">
        <ele>1088.836</ele>
        <time>2011-04-27T09:10:07Z</time>
      </trkpt>
      <trkpt lat="31.29704" lon="-7.965">
        <ele>1091.893</ele>
        <time>2011-04-27T09:10:12Z</time>
      </trkpt>
      <trkpt lat="31.29735" lon="-7.96458">
        <ele>1088.921</ele>
        <time>2011-04-27T09:10:18Z</time>
      </trkpt>
      <trkpt lat="31.29916" lon="-7.96408">
        <ele>1083.261</ele>
        <time>2011-04-27T09:10:39Z</time>
      </trkpt>
      <trkpt lat="31.29984" lon="-7.9629">
        <ele>1076.126</ele>
        <time>2011-04-27T09:10:57Z</time>
      </trkpt>
      <trkpt lat="31.30051" lon="-7.96413">
        <ele>1075.636</ele>
        <time>2011-04-27T09:11:10Z</time>
      </trkpt>
      <trkpt lat="31.30205" lon="-7.96336">
        <ele>1083.233</ele>
        <time>2011-04-27T09:11:30Z</time>
      </trkpt>
      <trkpt lat="31.30275" lon="-7.96367">
        <ele>1087.533</ele>
        <time>2011-04-27T09:11:37Z</time>
      </trkpt>
      <trkpt lat="31.30411" lon="-7.96446">
        <ele>1094.166</ele>
        <time>2011-04-27T09:11:53Z</time>
      </trkpt>
      <trkpt lat="31.30693" lon="-7.96514">
        <ele>1094.29</ele>
        <time>2011-04-27T09:12:16Z</time>
      </trkpt>
      <trkpt lat="31.30888" lon="-7.96346">
        <ele>1104.474</ele>
        <time>2011-04-27T09:12:39Z</time>
      </trkpt>
      <trkpt lat="31.30878" lon="-7.96303">
        <ele>1104.97</ele>
        <time>2011-04-27T09:12:47Z</time>
      </trkpt>
      <trkpt lat="31.30851" lon="-7.96235">
        <ele>1103.106</ele>
        <time>2011-04-27T09:12:56Z</time>
      </trkpt>
      <trkpt lat="31.30882" lon="-7.96176">
        <ele>1099.124</ele>
        <time>2011-04-27T09:13:04Z</time>
      </trkpt>
      <trkpt lat="31.3106" lon="-7.96094">
        <ele>1094.388</ele>
        <time>2011-04-27T09:13:25Z</time>
      </trkpt>
      <trkpt lat="31.31035" lon="-7.95962">
        <ele>1093.24</ele>
        <time>2011-04-27T09:13:45Z</time>
      </trkpt>
      <trkpt lat="31.3107" lon="-7.95921">
        <ele>1091.259</ele>
        <time>2011-04-27T09:13:54Z</time>
      </trkpt>
      <trkpt lat="31.31195" lon="-7.95859">
        <ele>1081.389</ele>
        <time>2011-04-27T09:14:11Z</time>
      </trkpt>
      <trkpt lat="31.31236" lon="-7.95879">
        <ele>1077.39</ele>
        <time>2011-04-27T09:14:16Z</time>
      </trkpt>
      <trkpt lat="31.3127" lon="-7.9608">
        <ele>1069.521</ele>
        <time>2011-04-27T09:14:33Z</time>
      </trkpt>
      <trkpt lat="31.3127" lon="-7.96146">
        <ele>1063.579</ele>
        <time>2011-04-27T09:14:39Z</time>
      </trkpt>
      <trkpt lat="31.31347" lon="-7.96144">
        <ele>1059.146</ele>
        <time>2011-04-27T09:14:54Z</time>
      </trkpt>
      <trkpt lat="31.3152" lon="-7.96385">
        <ele>1039.15</ele>
        <time>2011-04-27T09:15:26Z</time>
      </trkpt>
      <trkpt lat="31.31552" lon="-7.96377">
        <ele>1036.562</ele>
        <time>2011-04-27T09:15:33Z</time>
      </trkpt>
      <trkpt lat="31.31455" lon="-7.9628">
        <ele>1030.787</ele>
        <time>2011-04-27T09:15:53Z</time>
      </trkpt>
      <trkpt lat="31.3134" lon="-7.9591">
        <ele>1011.751</ele>
        <time>2011-04-27T09:16:32Z</time>
      </trkpt>
      <trkpt lat="31.31419" lon="-7.95763">
        <ele>1008.685</ele>
        <time>2011-04-27T09:16:45Z</time>
      </trkpt>
      <trkpt lat="31.31622" lon="-7.95709">
        <ele>1005.799</ele>
        <time>2011-04-27T09:17:00Z</time>
      </trkpt>
      <trkpt lat="31.31846" lon="-7.95781">
        <ele>1000.149</ele>
        <time>2011-04-27T09:17:22Z</time>
      </trkpt>
      <trkpt lat="31.31873" lon="-7.95527">
        <ele>994.27</ele>
        <time>2011-04-27T09:17:41Z</time>
      </trkpt>
      <trkpt lat="31.31941" lon="-7.95448">
        <ele>991.309</ele>
        <time>2011-04-27T09:17:49Z</time>
      </trkpt>
      <trkpt lat="31.32133" lon="-7.95429">
        <ele>988.401</ele>
        <time>2011-04-27T09:18:03Z</time>
      </trkpt>
      <trkpt lat="31.32301" lon="-7.95301">
        <ele>982.052</ele>
        <time>2011-04-27T09:18:17Z</time>
      </trkpt>
      <trkpt lat="31.32428" lon="-7.95129">
        <ele>985.681</ele>
        <time>2011-04-27T09:18:32Z</time>
      </trkpt>
      <trkpt lat="31.3267" lon="-7.95073">
        <ele>992.937</ele>
        <time>2011-04-27T09:18:53Z</time>
      </trkpt>
      <trkpt lat="31.32794" lon="-7.95061">
        <ele>992.88</ele>
        <time>2011-04-27T09:19:02Z</time>
      </trkpt>
      <trkpt lat="31.33031" lon="-7.94974">
        <ele>986.34</ele>
        <time>2011-04-27T09:19:20Z</time>
      </trkpt>
      <trkpt lat="31.3335" lon="-7.9492">
        <ele>975.895</ele>
        <time>2011-04-27T09:19:43Z</time>
      </trkpt>
      <trkpt lat="31.33514" lon="-7.94773">
        <ele>964.514</ele>
        <time>2011-04-27T09:20:05Z</time>
      </trkpt>
      <trkpt lat="31.3361" lon="-7.94853">
        <ele>968.339</ele>
        <time>2011-04-27T09:20:21Z</time>
      </trkpt>
      <trkpt lat="31.33968" lon="-7.94962">
        <ele>969.229</ele>
        <time>2011-04-27T09:20:52Z</time>
      </trkpt>
      <trkpt lat="31.3419" lon="-7.95209">
        <ele>959.715</ele>
        <time>2011-04-27T09:21:35Z</time>
      </trkpt>
      <trkpt lat="31.34216" lon="-7.95178">
        <ele>958.375</ele>
        <time>2011-04-27T09:21:42Z</time>
      </trkpt>
      <trkpt lat="31.34158" lon="-7.94999">
        <ele>950.223</ele>
        <time>2011-04-27T09:22:08Z</time>
      </trkpt>
      <trkpt lat="31.34183" lon="-7.94972">
        <ele>949.027</ele>
        <time>2011-04-27T09:22:16Z</time>
      </trkpt>
      <trkpt lat="31.34282" lon="-7.95143">
        <ele>951.678</ele>
        <time>2011-04-27T09:22:36Z</time>
      </trkpt>
      <trkpt lat="31.34346" lon="-7.95174">
        <ele>953.4</ele>
        <time>2011-04-27T09:22:43Z</time>
      </trkpt>
      <trkpt lat="31.34611" lon="-7.95122">
        <ele>941.301</ele>
        <time>2011-04-27T09:23:17Z</time>
      </trkpt>
      <trkpt lat="31.3468" lon="-7.95188">
        <ele>944.463</ele>
        <time>2011-04-27T09:23:30Z</time>
      </trkpt>
      <trkpt lat="31.34839" lon="-7.95114">
        <ele>951.525</ele>
        <time>2011-04-27T09:23:49Z</time>
      </trkpt>
      <trkpt lat="31.35076" lon="-7.95125">
        <ele>938.479</ele>
        <time>2011-04-27T09:24:10Z</time>
      </trkpt>
      <trkpt lat="31.35343" lon="-7.95218">
        <ele>933.143</ele>
        <time>2011-04-27T09:24:42Z</time>
      </trkpt>
      <trkpt lat="31.35874" lon="-7.94867">
        <ele>933.845</ele>
        <time>2011-04-27T09:25:18Z</time>
      </trkpt>
      <trkpt lat="31.36155" lon="-7.94747">
        <ele>927.181</ele>
        <time>2011-04-27T09:25:41Z</time>
      </trkpt>
      <trkpt lat="31.36757" lon="-7.94661">
        <ele>909.686</ele>
        <time>2011-04-27T09:26:43Z</time>
      </trkpt>
      <trkpt lat="31.36841" lon="-7.94657">
        <ele>907.135</ele>
        <time>2011-04-27T09:26:49Z</time>
      </trkpt>
      <trkpt lat="31.36907" lon="-7.94655">
        <ele>903.061</ele>
        <time>2011-04-27T09:26:54Z</time>
      </trkpt>
      <trkpt lat="31.37413" lon="-7.94946">
        <ele>884.905</ele>
        <time>2011-04-27T09:27:29Z</time>
      </trkpt>
      <trkpt lat="31.39306" lon="-7.95262">
        <ele>843.242</ele>
        <time>2011-04-27T09:29:12Z</time>
      </trkpt>
      <trkpt lat="31.40572" lon="-7.95399">
        <ele>819.031</ele>
        <time>2011-04-27T09:30:15Z</time>
      </trkpt>
      <trkpt lat="31.40769" lon="-7.95419">
        <ele>812.815</ele>
        <time>2011-04-27T09:30:26Z</time>
      </trkpt>
      <trkpt lat="31.4252" lon="-7.95984">
        <ele>779.481</ele>
        <time>2011-04-27T09:31:56Z</time>
      </trkpt>
      <trkpt lat="31.42952" lon="-7.96146">
        <ele>768.823</ele>
        <time>2011-04-27T09:32:18Z</time>
      </trkpt>
      <trkpt lat="31.43194" lon="-7.9633">
        <ele>765.526</ele>
        <time>2011-04-27T09:32:30Z</time>
      </trkpt>
      <trkpt lat="31.43576" lon="-7.96523">
        <ele>760.608</ele>
        <time>2011-04-27T09:32:46Z</time>
      </trkpt>
      <trkpt lat="31.44199" lon="-7.96819">
        <ele>741.899</ele>
        <time>2011-04-27T09:33:16Z</time>
      </trkpt>
      <trkpt lat="31.4512" lon="-7.97589">
        <ele>725.251</ele>
        <time>2011-04-27T09:34:05Z</time>
      </trkpt>
      <trkpt lat="31.45491" lon="-7.9795">
        <ele>719.513</ele>
        <time>2011-04-27T09:34:25Z</time>
      </trkpt>
      <trkpt lat="31.45737" lon="-7.98185">
        <ele>712.57</ele>
        <time>2011-04-27T09:34:39Z</time>
      </trkpt>
      <trkpt lat="31.45899" lon="-7.9825">
        <ele>706.124</ele>
        <time>2011-04-27T09:34:49Z</time>
      </trkpt>
      <trkpt lat="31.46913" lon="-7.98343">
        <ele>695.662</ele>
        <time>2011-04-27T09:35:35Z</time>
      </trkpt>
      <trkpt lat="31.48734" lon="-7.98369">
        <ele>670.555</ele>
        <time>2011-04-27T09:36:55Z</time>
      </trkpt>
      <trkpt lat="31.49952" lon="-7.98403">
        <ele>642.306</ele>
        <time>2011-04-27T09:37:43Z</time>
      </trkpt>
      <trkpt lat="31.50382" lon="-7.98474">
        <ele>632.85</ele>
        <time>2011-04-27T09:38:05Z</time>
      </trkpt>
      <trkpt lat="31.51186" lon="-7.98719">
        <ele>625.868</ele>
        <time>2011-04-27T09:38:44Z</time>
      </trkpt>
      <trkpt lat="31.52099" lon="-7.99011">
        <ele>610.039</ele>
        <time>2011-04-27T09:39:29Z</time>
      </trkpt>
      <trkpt lat="31.52279" lon="-7.9907">
        <ele>605.601</ele>
        <time>2011-04-27T09:39:36Z</time>
      </trkpt>
      <trkpt lat="31.52553" lon="-7.99178">
        <ele>602.696</ele>
        <time>2011-04-27T09:39:47Z</time>
      </trkpt>
      <trkpt lat="31.52658" lon="-7.99217">
        <ele>594.511</ele>
        <time>2011-04-27T09:39:52Z</time>
      </trkpt>
      <trkpt lat="31.53004" lon="-7.99401">
        <ele>582.911</ele>
        <time>2011-04-27T09:40:17Z</time>
      </trkpt>
      <trkpt lat="31.53882" lon="-7.99932">
        <ele>580.875</ele>
        <time>2011-04-27T09:41:36Z</time>
      </trkpt>
      <trkpt lat="31.56395" lon="-8.01457">
        <ele>540.434</ele>
        <time>2011-04-27T09:43:44Z</time>
      </trkpt>
      <trkpt lat="31.56917" lon="-8.01672">
        <ele>533.252</ele>
        <time>2011-04-27T09:44:09Z</time>
      </trkpt>
      <trkpt lat="31.57329" lon="-8.0176">
        <ele>522.93</ele>
        <time>2011-04-27T09:44:31Z</time>
      </trkpt>
      <trkpt lat="31.57548" lon="-8.01712">
        <ele>520.113</ele>
        <time>2011-04-27T09:44:45Z</time>
      </trkpt>
      <trkpt lat="31.59538" lon="-8.00433">
        <ele>505.171</ele>
        <time>2011-04-27T09:46:48Z</time>
      </trkpt>
      <trkpt lat="31.60517" lon="-7.99855">
        <ele>498.213</ele>
        <time>2011-04-27T09:48:09Z</time>
      </trkpt>
      <trkpt lat="31.6115" lon="-7.99453">
        <ele>491.219</ele>
        <time>2011-04-27T09:48:51Z</time>
      </trkpt>
      <trkpt lat="31.61344" lon="-7.99303">
        <ele>484.667</ele>
        <time>2011-04-27T09:49:10Z</time>
      </trkpt>
      <trkpt lat="31.61552" lon="-7.99592">
        <ele>484.17</ele>
        <time>2011-04-27T09:49:39Z</time>
      </trkpt>
      <trkpt lat="31.62888" lon="-8.00317">
        <ele>470.882</ele>
        <time>2011-04-27T09:52:14Z</time>
      </trkpt>
      <trkpt lat="31.62938" lon="-8.00313">
        <ele>469.516</ele>
        <time>2011-04-27T09:52:24Z</time>
      </trkpt>
      <trkpt lat="31.62842" lon="-8.00108">
        <ele>469.886</ele>
        <time>2011-04-27T09:53:23Z</time>
      </trkpt>
      <trkpt lat="31.62885" lon="-8">
        <ele>469.895</ele>
        <time>2011-04-27T09:53:51Z</time>
      </trkpt>
      <trkpt lat="31.62969" lon="-7.99999">
        <ele>471.666</ele>
        <time>2011-04-27T09:54:02Z</time>
      </trkpt>
      <trkpt lat="31.63111" lon="-8.00109">
        <ele>469.695</ele>
        <time>2011-04-27T09:54:15Z</time>
      </trkpt>
      <trkpt lat="31.63181" lon="-8.00077">
        <ele>467.904</ele>
        <time>2011-04-27T09:54:21Z</time>
      </trkpt>
      <trkpt lat="31.63267" lon="-7.99965">
        <ele>466.247</ele>
        <time>2011-04-27T09:54:31Z</time>
      </trkpt>
      <trkpt lat="31.63363" lon="-7.99983">
        <ele>468.923</ele>
        <time>2011-04-27T09:54:43Z</time>
      </trkpt>
      <trkpt lat="31.63493" lon="-7.99992">
        <ele>466.935</ele>
        <time>2011-04-27T09:55:03Z</time>
      </trkpt>
      <trkpt lat="31.64039" lon="-8.00563">
        <ele>464.222</ele>
        <time>2011-04-27T09:57:40Z</time>
      </trkpt>
      <trkpt lat="31.64581" lon="-8.01038">
        <ele>456.977</ele>
        <time>2011-04-27T09:59:30Z</time>
      </trkpt>
      <trkpt lat="31.64752" lon="-8.0123">
        <ele>460.429</ele>
        <time>2011-04-27T09:59:48Z</time>
      </trkpt>
      <trkpt lat="31.65415" lon="-8.01875">
        <ele>444.893</ele>
        <time>2011-04-27T10:01:57Z</time>
      </trkpt>
      <trkpt lat="31.65716" lon="-8.01781">
        <ele>447.083</ele>
        <time>2011-04-27T10:02:20Z</time>
      </trkpt>
      <trkpt lat="31.65823" lon="-8.01712">
        <ele>443.34</ele>
        <time>2011-04-27T10:02:32Z</time>
      </trkpt>
      <trkpt lat="31.65847" lon="-8.01979">
        <ele>444.975</ele>
        <time>2011-04-27T10:03:04Z</time>
      </trkpt>
      <trkpt lat="31.65763" lon="-8.02281">
        <ele>437.08</ele>
        <time>2011-04-27T10:03:33Z</time>
      </trkpt>
      <trkpt lat="31.66593" lon="-8.03455">
        <ele>434.181</ele>
        <time>2011-04-27T10:05:01Z</time>
      </trkpt>
      <trkpt lat="31.66749" lon="-8.03676">
        <ele>426.129</ele>
        <time>2011-04-27T10:05:18Z</time>
      </trkpt>
      <trkpt lat="31.66934" lon="-8.03907">
        <ele>420.945</ele>
        <time>2011-04-27T10:06:39Z</time>
      </trkpt>
      <trkpt lat="31.66955" lon="-8.03858">
        <ele>421.606</ele>
        <time>2011-04-27T10:25:43Z</time>
      </trkpt>
      <trkpt lat="31.66977" lon="-8.03951">
        <ele>422.601</ele>
        <time>2011-04-27T10:27:03Z</time>
      </trkpt>
      <trkpt lat="31.67465" lon="-8.0439">
        <ele>422.705</ele>
        <time>2011-04-27T10:29:08Z</time>
      </trkpt>
      <trkpt lat="31.67915" lon="-8.04805">
        <ele>414.273</ele>
        <time>2011-04-27T10:29:43Z</time>
      </trkpt>
      <trkpt lat="31.68874" lon="-8.05375">
        <ele>412.258</ele>
        <time>2011-04-27T10:31:22Z</time>
      </trkpt>
      <trkpt lat="31.69248" lon="-8.05614">
        <ele>398.23</ele>
        <time>2011-04-27T10:31:52Z</time>
      </trkpt>
      <trkpt lat="31.69307" lon="-8.05603">
        <ele>396.987</ele>
        <time>2011-04-27T10:32:10Z</time>
      </trkpt>
      <trkpt lat="31.69351" lon="-8.05675">
        <ele>397.717</ele>
        <time>2011-04-27T10:38:08Z</time>
      </trkpt>
      <trkpt lat="31.6945" lon="-8.05733">
        <ele>397.549</ele>
        <time>2011-04-27T10:38:16Z</time>
      </trkpt>
      <trkpt lat="31.70655" lon="-8.06416">
        <ele>392.374</ele>
        <time>2011-04-27T10:39:24Z</time>
      </trkpt>
      <trkpt lat="31.70815" lon="-8.06518">
        <ele>387.976</ele>
        <time>2011-04-27T10:39:34Z</time>
      </trkpt>
      <trkpt lat="31.72181" lon="-8.08621">
        <ele>378.439</ele>
        <time>2011-04-27T10:41:40Z</time>
      </trkpt>
      <trkpt lat="31.73518" lon="-8.09857">
        <ele>390.267</ele>
        <time>2011-04-27T10:43:04Z</time>
      </trkpt>
      <trkpt lat="31.75545" lon="-8.11177">
        <ele>380.898</ele>
        <time>2011-04-27T10:45:28Z</time>
      </trkpt>
      <trkpt lat="31.76271" lon="-8.11694">
        <ele>386.579</ele>
        <time>2011-04-27T10:46:37Z</time>
      </trkpt>
      <trkpt lat="31.76483" lon="-8.11861">
        <ele>386.937</ele>
        <time>2011-04-27T10:46:51Z</time>
      </trkpt>
      <trkpt lat="31.76896" lon="-8.12403">
        <ele>391.808</ele>
        <time>2011-04-27T10:47:26Z</time>
      </trkpt>
      <trkpt lat="31.77343" lon="-8.13058">
        <ele>383.297</ele>
        <time>2011-04-27T10:48:08Z</time>
      </trkpt>
      <trkpt lat="31.77707" lon="-8.12776">
        <ele>396.266</ele>
        <time>2011-04-27T10:49:21Z</time>
      </trkpt>
      <trkpt lat="31.77946" lon="-8.12746">
        <ele>402.363</ele>
        <time>2011-04-27T10:49:31Z</time>
      </trkpt>
      <trkpt lat="31.78072" lon="-8.12813">
        <ele>401.554</ele>
        <time>2011-04-27T10:49:37Z</time>
      </trkpt>
      <trkpt lat="31.78375" lon="-8.13116">
        <ele>403.127</ele>
        <time>2011-04-27T10:49:59Z</time>
      </trkpt>
      <trkpt lat="31.78491" lon="-8.13137">
        <ele>403.371</ele>
        <time>2011-04-27T10:50:06Z</time>
      </trkpt>
      <trkpt lat="31.7858" lon="-8.13073">
        <ele>403.32</ele>
        <time>2011-04-27T10:50:11Z</time>
      </trkpt>
      <trkpt lat="31.78707" lon="-8.12908">
        <ele>409.282</ele>
        <time>2011-04-27T10:50:19Z</time>
      </trkpt>
      <trkpt lat="31.79167" lon="-8.12277">
        <ele>415.057</ele>
        <time>2011-04-27T10:50:47Z</time>
      </trkpt>
      <trkpt lat="31.79394" lon="-8.11854">
        <ele>421.09</ele>
        <time>2011-04-27T10:51:03Z</time>
      </trkpt>
      <trkpt lat="31.79461" lon="-8.116">
        <ele>424.303</ele>
        <time>2011-04-27T10:51:11Z</time>
      </trkpt>
      <trkpt lat="31.79893" lon="-8.10416">
        <ele>430.729</ele>
        <time>2011-04-27T10:51:52Z</time>
      </trkpt>
      <trkpt lat="31.80263" lon="-8.09658">
        <ele>440.673</ele>
        <time>2011-04-27T10:52:20Z</time>
      </trkpt>
      <trkpt lat="31.80649" lon="-8.08874">
        <ele>446.213</ele>
        <time>2011-04-27T10:52:49Z</time>
      </trkpt>
      <trkpt lat="31.80992" lon="-8.07529">
        <ele>452.481</ele>
        <time>2011-04-27T10:53:34Z</time>
      </trkpt>
      <trkpt lat="31.81114" lon="-8.07247">
        <ele>454.565</ele>
        <time>2011-04-27T10:53:44Z</time>
      </trkpt>
      <trkpt lat="31.8141" lon="-8.06833">
        <ele>460.091</ele>
        <time>2011-04-27T10:54:01Z</time>
      </trkpt>
      <trkpt lat="31.8166" lon="-8.0659">
        <ele>464.469</ele>
        <time>2011-04-27T10:54:13Z</time>
      </trkpt>
      <trkpt lat="31.82129" lon="-8.06122">
        <ele>469.835</ele>
        <time>2011-04-27T10:54:36Z</time>
      </trkpt>
      <trkpt lat="31.82315" lon="-8.05853">
        <ele>470.953</ele>
        <time>2011-04-27T10:54:47Z</time>
      </trkpt>
      <trkpt lat="31.82494" lon="-8.05349">
        <ele>477.88</ele>
        <time>2011-04-27T10:55:04Z</time>
      </trkpt>
      <trkpt lat="31.827" lon="-8.0417">
        <ele>489.809</ele>
        <time>2011-04-27T10:55:42Z</time>
      </trkpt>
      <trkpt lat="31.82802" lon="-8.03909">
        <ele>494.455</ele>
        <time>2011-04-27T10:55:51Z</time>
      </trkpt>
      <trkpt lat="31.82974" lon="-8.03635">
        <ele>497.875</ele>
        <time>2011-04-27T10:56:02Z</time>
      </trkpt>
      <trkpt lat="31.83342" lon="-8.03214">
        <ele>507.564</ele>
        <time>2011-04-27T10:56:21Z</time>
      </trkpt>
      <trkpt lat="31.83713" lon="-8.02943">
        <ele>511.24</ele>
        <time>2011-04-27T10:56:37Z</time>
      </trkpt>
      <trkpt lat="31.83845" lon="-8.02888">
        <ele>512.024</ele>
        <time>2011-04-27T10:56:42Z</time>
      </trkpt>
      <trkpt lat="31.84427" lon="-8.02769">
        <ele>524.794</ele>
        <time>2011-04-27T10:57:04Z</time>
      </trkpt>
      <trkpt lat="31.8514" lon="-8.02507">
        <ele>550.442</ele>
        <time>2011-04-27T10:57:32Z</time>
      </trkpt>
      <trkpt lat="31.85408" lon="-8.0251">
        <ele>556.821</ele>
        <time>2011-04-27T10:57:42Z</time>
      </trkpt>
      <trkpt lat="31.85745" lon="-8.02605">
        <ele>569.817</ele>
        <time>2011-04-27T10:57:55Z</time>
      </trkpt>
      <trkpt lat="31.85826" lon="-8.02632">
        <ele>572.196</ele>
        <time>2011-04-27T10:57:58Z</time>
      </trkpt>
      <trkpt lat="31.86274" lon="-8.02735">
        <ele>580.472</ele>
        <time>2011-04-27T10:58:14Z</time>
      </trkpt>
      <trkpt lat="31.86562" lon="-8.02701">
        <ele>581.01</ele>
        <time>2011-04-27T10:58:24Z</time>
      </trkpt>
      <trkpt lat="31.87854" lon="-8.02169">
        <ele>567.832</ele>
        <time>2011-04-27T10:59:15Z</time>
      </trkpt>
      <trkpt lat="31.88151" lon="-8.02097">
        <ele>571.695</ele>
        <time>2011-04-27T10:59:28Z</time>
      </trkpt>
      <trkpt lat="31.88379" lon="-8.0222">
        <ele>566.026</ele>
        <time>2011-04-27T10:59:38Z</time>
      </trkpt>
      <trkpt lat="31.88464" lon="-8.02317">
        <ele>561.132</ele>
        <time>2011-04-27T10:59:42Z</time>
      </trkpt>
      <trkpt lat="31.90327" lon="-8.02525">
        <ele>527.291</ele>
        <time>2011-04-27T11:00:50Z</time>
      </trkpt>
      <trkpt lat="31.91324" lon="-8.02532">
        <ele>516.792</ele>
        <time>2011-04-27T11:01:26Z</time>
      </trkpt>
      <trkpt lat="31.91817" lon="-8.02458">
        <ele>511.3</ele>
        <time>2011-04-27T11:01:44Z</time>
      </trkpt>
      <trkpt lat="31.92343" lon="-8.023">
        <ele>505.159</ele>
        <time>2011-04-27T11:02:04Z</time>
      </trkpt>
      <trkpt lat="31.93544" lon="-8.01769">
        <ele>495.273</ele>
        <time>2011-04-27T11:02:50Z</time>
      </trkpt>
      <trkpt lat="31.93595" lon="-8.01746">
        <ele>491.929</ele>
        <time>2011-04-27T11:02:52Z</time>
      </trkpt>
      <trkpt lat="31.93931" lon="-8.01671">
        <ele>490.343</ele>
        <time>2011-04-27T11:03:04Z</time>
      </trkpt>
      <trkpt lat="31.967" lon="-8.01564">
        <ele>475.754</ele>
        <time>2011-04-27T11:04:45Z</time>
      </trkpt>
      <trkpt lat="31.98759" lon="-8.00935">
        <ele>466.125</ele>
        <time>2011-04-27T11:06:03Z</time>
      </trkpt>
      <trkpt lat="32.01077" lon="-8.00711">
        <ele>462.183</ele>
        <time>2011-04-27T11:07:28Z</time>
      </trkpt>
      <trkpt lat="32.02051" lon="-8.00471">
        <ele>458.531</ele>
        <time>2011-04-27T11:08:03Z</time>
      </trkpt>
      <trkpt lat="32.03134" lon="-8.00101">
        <ele>459.388</ele>
        <time>2011-04-27T11:08:44Z</time>
      </trkpt>
      <trkpt lat="32.03847" lon="-7.9989">
        <ele>454.634</ele>
        <time>2011-04-27T11:09:10Z</time>
      </trkpt>
      <trkpt lat="32.06079" lon="-7.99459">
        <ele>456.275</ele>
        <time>2011-04-27T11:10:33Z</time>
      </trkpt>
      <trkpt lat="32.06928" lon="-7.99501">
        <ele>455.14</ele>
        <time>2011-04-27T11:11:03Z</time>
      </trkpt>
      <trkpt lat="32.07945" lon="-7.99736">
        <ele>456.231</ele>
        <time>2011-04-27T11:11:40Z</time>
      </trkpt>
      <trkpt lat="32.09159" lon="-7.99991">
        <ele>450.153</ele>
        <time>2011-04-27T11:12:24Z</time>
      </trkpt>
      <trkpt lat="32.10816" lon="-7.99932">
        <ele>455.843</ele>
        <time>2011-04-27T11:13:22Z</time>
      </trkpt>
      <trkpt lat="32.11729" lon="-8.00044">
        <ele>463.577</ele>
        <time>2011-04-27T11:13:55Z</time>
      </trkpt>
      <trkpt lat="32.12081" lon="-8.00135">
        <ele>465.361</ele>
        <time>2011-04-27T11:14:08Z</time>
      </trkpt>
      <trkpt lat="32.13203" lon="-8.00298">
        <ele>467.396</ele>
        <time>2011-04-27T11:14:48Z</time>
      </trkpt>
      <trkpt lat="32.13706" lon="-8.003">
        <ele>462.966</ele>
        <time>2011-04-27T11:15:06Z</time>
      </trkpt>
      <trkpt lat="32.14222" lon="-8.00227">
        <ele>458.7</ele>
        <time>2011-04-27T11:15:25Z</time>
      </trkpt>
      <trkpt lat="32.15388" lon="-7.9984">
        <ele>474.248</ele>
        <time>2011-04-27T11:16:08Z</time>
      </trkpt>
      <trkpt lat="32.16604" lon="-7.99358">
        <ele>468.385</ele>
        <time>2011-04-27T11:16:52Z</time>
      </trkpt>
      <trkpt lat="32.17444" lon="-7.99151">
        <ele>463.436</ele>
        <time>2011-04-27T11:17:21Z</time>
      </trkpt>
      <trkpt lat="32.19748" lon="-7.99087">
        <ele>465.453</ele>
        <time>2011-04-27T11:18:43Z</time>
      </trkpt>
      <trkpt lat="32.20551" lon="-7.98881">
        <ele>468.104</ele>
        <time>2011-04-27T11:19:12Z</time>
      </trkpt>
      <trkpt lat="32.21043" lon="-7.98651">
        <ele>471.84</ele>
        <time>2011-04-27T11:19:31Z</time>
      </trkpt>
      <trkpt lat="32.21326" lon="-7.98491">
        <ele>473.229</ele>
        <time>2011-04-27T11:19:42Z</time>
      </trkpt>
      <trkpt lat="32.21997" lon="-7.98181">
        <ele>473.472</ele>
        <time>2011-04-27T11:20:07Z</time>
      </trkpt>
      <trkpt lat="32.22343" lon="-7.98123">
        <ele>470.649</ele>
        <time>2011-04-27T11:20:19Z</time>
      </trkpt>
      <trkpt lat="32.23291" lon="-7.98098">
        <ele>475.544</ele>
        <time>2011-04-27T11:20:53Z</time>
      </trkpt>
      <trkpt lat="32.23946" lon="-7.98102">
        <ele>475.547</ele>
        <time>2011-04-27T11:21:17Z</time>
      </trkpt>
      <trkpt lat="32.2445" lon="-7.98">
        <ele>475.369</ele>
        <time>2011-04-27T11:21:35Z</time>
      </trkpt>
      <trkpt lat="32.25986" lon="-7.97205">
        <ele>482.274</ele>
        <time>2011-04-27T11:22:35Z</time>
      </trkpt>
      <trkpt lat="32.26747" lon="-7.96998">
        <ele>485.871</ele>
        <time>2011-04-27T11:23:03Z</time>
      </trkpt>
      <trkpt lat="32.27126" lon="-7.96945">
        <ele>481.611</ele>
        <time>2011-04-27T11:23:23Z</time>
      </trkpt>
      <trkpt lat="32.27158" lon="-7.96841">
        <ele>480.966</ele>
        <time>2011-04-27T11:23:30Z</time>
      </trkpt>
      <trkpt lat="32.27311" lon="-7.96839">
        <ele>485.39</ele>
        <time>2011-04-27T11:23:54Z</time>
      </trkpt>
      <trkpt lat="32.27351" lon="-7.96905">
        <ele>486.092</ele>
        <time>2011-04-27T11:24:06Z</time>
      </trkpt>
      <trkpt lat="32.27626" lon="-7.96836">
        <ele>504.782</ele>
        <time>2011-04-27T11:24:21Z</time>
      </trkpt>
      <trkpt lat="32.2795" lon="-7.96753">
        <ele>510.39</ele>
        <time>2011-04-27T11:24:33Z</time>
      </trkpt>
      <trkpt lat="32.28507" lon="-7.96574">
        <ele>510.18</ele>
        <time>2011-04-27T11:24:54Z</time>
      </trkpt>
      <trkpt lat="32.29438" lon="-7.9615">
        <ele>505.297</ele>
        <time>2011-04-27T11:25:29Z</time>
      </trkpt>
      <trkpt lat="32.30018" lon="-7.95956">
        <ele>510.428</ele>
        <time>2011-04-27T11:25:50Z</time>
      </trkpt>
      <trkpt lat="32.31011" lon="-7.9588">
        <ele>512.812</ele>
        <time>2011-04-27T11:26:25Z</time>
      </trkpt>
      <trkpt lat="32.31864" lon="-7.95885">
        <ele>514.853</ele>
        <time>2011-04-27T11:26:55Z</time>
      </trkpt>
      <trkpt lat="32.3258" lon="-7.95802">
        <ele>516.959</ele>
        <time>2011-04-27T11:27:20Z</time>
      </trkpt>
      <trkpt lat="32.33972" lon="-7.95356">
        <ele>515.36</ele>
        <time>2011-04-27T11:28:09Z</time>
      </trkpt>
      <trkpt lat="32.34876" lon="-7.94973">
        <ele>500.604</ele>
        <time>2011-04-27T11:28:43Z</time>
      </trkpt>
      <trkpt lat="32.36441" lon="-7.93963">
        <ele>509.315</ele>
        <time>2011-04-27T11:29:46Z</time>
      </trkpt>
      <trkpt lat="32.37125" lon="-7.93599">
        <ele>507.341</ele>
        <time>2011-04-27T11:30:12Z</time>
      </trkpt>
      <trkpt lat="32.37427" lon="-7.93486">
        <ele>503.364</ele>
        <time>2011-04-27T11:30:23Z</time>
      </trkpt>
      <trkpt lat="32.38168" lon="-7.93417">
        <ele>507.62</ele>
        <time>2011-04-27T11:30:49Z</time>
      </trkpt>
      <trkpt lat="32.38541" lon="-7.93432">
        <ele>505.43</ele>
        <time>2011-04-27T11:31:02Z</time>
      </trkpt>
      <trkpt lat="32.40209" lon="-7.93829">
        <ele>524.098</ele>
        <time>2011-04-27T11:32:01Z</time>
      </trkpt>
      <trkpt lat="32.40997" lon="-7.93887">
        <ele>513.317</ele>
        <time>2011-04-27T11:32:28Z</time>
      </trkpt>
      <trkpt lat="32.41385" lon="-7.93741">
        <ele>505.245</ele>
        <time>2011-04-27T11:32:42Z</time>
      </trkpt>
      <trkpt lat="32.4231" lon="-7.93245">
        <ele>507.733</ele>
        <time>2011-04-27T11:33:17Z</time>
      </trkpt>
      <trkpt lat="32.42611" lon="-7.93159">
        <ele>510.264</ele>
        <time>2011-04-27T11:33:28Z</time>
      </trkpt>
      <trkpt lat="32.42985" lon="-7.93119">
        <ele>515.82</ele>
        <time>2011-04-27T11:33:41Z</time>
      </trkpt>
      <trkpt lat="32.43986" lon="-7.93166">
        <ele>526.17</ele>
        <time>2011-04-27T11:34:16Z</time>
      </trkpt>
      <trkpt lat="32.44444" lon="-7.93154">
        <ele>528.264</ele>
        <time>2011-04-27T11:34:32Z</time>
      </trkpt>
      <trkpt lat="32.45664" lon="-7.93098">
        <ele>520.34</ele>
        <time>2011-04-27T11:35:14Z</time>
      </trkpt>
      <trkpt lat="32.46449" lon="-7.92875">
        <ele>513.648</ele>
        <time>2011-04-27T11:35:42Z</time>
      </trkpt>
      <trkpt lat="32.47049" lon="-7.92634">
        <ele>506.008</ele>
        <time>2011-04-27T11:36:04Z</time>
      </trkpt>
      <trkpt lat="32.47606" lon="-7.92507">
        <ele>497.522</ele>
        <time>2011-04-27T11:36:24Z</time>
      </trkpt>
      <trkpt lat="32.48195" lon="-7.92443">
        <ele>478.895</ele>
        <time>2011-04-27T11:36:45Z</time>
      </trkpt>
      <trkpt lat="32.49619" lon="-7.91911">
        <ele>479.864</ele>
        <time>2011-04-27T11:37:37Z</time>
      </trkpt>
      <trkpt lat="32.50182" lon="-7.91878">
        <ele>486.297</ele>
        <time>2011-04-27T11:37:57Z</time>
      </trkpt>
      <trkpt lat="32.50914" lon="-7.91927">
        <ele>486.438</ele>
        <time>2011-04-27T11:38:23Z</time>
      </trkpt>
      <trkpt lat="32.51233" lon="-7.91897">
        <ele>484.806</ele>
        <time>2011-04-27T11:38:34Z</time>
      </trkpt>
      <trkpt lat="32.52713" lon="-7.91477">
        <ele>437.172</ele>
        <time>2011-04-27T11:39:27Z</time>
      </trkpt>
      <trkpt lat="32.53397" lon="-7.91022">
        <ele>402.511</ele>
        <time>2011-04-27T11:39:55Z</time>
      </trkpt>
      <trkpt lat="32.54373" lon="-7.90163">
        <ele>361.726</ele>
        <time>2011-04-27T11:40:38Z</time>
      </trkpt>
      <trkpt lat="32.55661" lon="-7.88153">
        <ele>332.242</ele>
        <time>2011-04-27T11:41:52Z</time>
      </trkpt>
      <trkpt lat="32.56375" lon="-7.87174">
        <ele>322.302</ele>
        <time>2011-04-27T11:42:30Z</time>
      </trkpt>
      <trkpt lat="32.56833" lon="-7.86633">
        <ele>316.768</ele>
        <time>2011-04-27T11:42:53Z</time>
      </trkpt>
      <trkpt lat="32.57056" lon="-7.86311">
        <ele>313.3</ele>
        <time>2011-04-27T11:43:05Z</time>
      </trkpt>
      <trkpt lat="32.57648" lon="-7.85226">
        <ele>300.589</ele>
        <time>2011-04-27T11:43:42Z</time>
      </trkpt>
      <trkpt lat="32.58028" lon="-7.84434">
        <ele>301.68</ele>
        <time>2011-04-27T11:44:08Z</time>
      </trkpt>
      <trkpt lat="32.58304" lon="-7.83988">
        <ele>302.756</ele>
        <time>2011-04-27T11:44:24Z</time>
      </trkpt>
      <trkpt lat="32.58387" lon="-7.8389">
        <ele>299.251</ele>
        <time>2011-04-27T11:44:28Z</time>
      </trkpt>
      <trkpt lat="32.58975" lon="-7.83366">
        <ele>295.195</ele>
        <time>2011-04-27T11:44:54Z</time>
      </trkpt>
      <trkpt lat="32.59882" lon="-7.8285">
        <ele>289.077</ele>
        <time>2011-04-27T11:45:29Z</time>
      </trkpt>
      <trkpt lat="32.60291" lon="-7.82589">
        <ele>281.53</ele>
        <time>2011-04-27T11:45:45Z</time>
      </trkpt>
      <trkpt lat="32.60567" lon="-7.82322">
        <ele>278.516</ele>
        <time>2011-04-27T11:45:57Z</time>
      </trkpt>
      <trkpt lat="32.60986" lon="-7.81824">
        <ele>276.371</ele>
        <time>2011-04-27T11:46:17Z</time>
      </trkpt>
      <trkpt lat="32.6152" lon="-7.80811">
        <ele>281.04</ele>
        <time>2011-04-27T11:46:51Z</time>
      </trkpt>
      <trkpt lat="32.61834" lon="-7.8037">
        <ele>274.536</ele>
        <time>2011-04-27T11:47:08Z</time>
      </trkpt>
      <trkpt lat="32.62263" lon="-7.79941">
        <ele>260.606</ele>
        <time>2011-04-27T11:47:27Z</time>
      </trkpt>
      <trkpt lat="32.62619" lon="-7.79707">
        <ele>248.498</ele>
        <time>2011-04-27T11:47:41Z</time>
      </trkpt>
      <trkpt lat="32.63283" lon="-7.79364">
        <ele>233.781</ele>
        <time>2011-04-27T11:48:06Z</time>
      </trkpt>
      <trkpt lat="32.63723" lon="-7.78999">
        <ele>220.579</ele>
        <time>2011-04-27T11:48:24Z</time>
      </trkpt>
      <trkpt lat="32.65526" lon="-7.76897">
        <ele>238.925</ele>
        <time>2011-04-27T11:49:49Z</time>
      </trkpt>
      <trkpt lat="32.67054" lon="-7.75465">
        <ele>240.337</ele>
        <time>2011-04-27T11:50:53Z</time>
      </trkpt>
      <trkpt lat="32.68856" lon="-7.74426">
        <ele>259.199</ele>
        <time>2011-04-27T11:52:00Z</time>
      </trkpt>
      <trkpt lat="32.69612" lon="-7.74125">
        <ele>268.357</ele>
        <time>2011-04-27T11:52:27Z</time>
      </trkpt>
      <trkpt lat="32.71405" lon="-7.73852">
        <ele>308.048</ele>
        <time>2011-04-27T11:53:28Z</time>
      </trkpt>
      <trkpt lat="32.72475" lon="-7.73752">
        <ele>342.16</ele>
        <time>2011-04-27T11:54:04Z</time>
      </trkpt>
      <trkpt lat="32.72505" lon="-7.73752">
        <ele>342.154</ele>
        <time>2011-04-27T11:54:05Z</time>
      </trkpt>
      <trkpt lat="32.7292" lon="-7.73818">
        <ele>353.734</ele>
        <time>2011-04-27T11:54:19Z</time>
      </trkpt>
      <trkpt lat="32.73412" lon="-7.73978">
        <ele>370.64</ele>
        <time>2011-04-27T11:54:36Z</time>
      </trkpt>
      <trkpt lat="32.74155" lon="-7.74262">
        <ele>392.129</ele>
        <time>2011-04-27T11:55:02Z</time>
      </trkpt>
      <trkpt lat="32.7436" lon="-7.74288">
        <ele>396.79</ele>
        <time>2011-04-27T11:55:09Z</time>
      </trkpt>
      <trkpt lat="32.75189" lon="-7.74292">
        <ele>404.867</ele>
        <time>2011-04-27T11:55:36Z</time>
      </trkpt>
      <trkpt lat="32.75538" lon="-7.74255">
        <ele>407.55</ele>
        <time>2011-04-27T11:55:47Z</time>
      </trkpt>
      <trkpt lat="32.756" lon="-7.74248">
        <ele>405.859</ele>
        <time>2011-04-27T11:55:49Z</time>
      </trkpt>
      <trkpt lat="32.76275" lon="-7.74093">
        <ele>410.261</ele>
        <time>2011-04-27T11:56:11Z</time>
      </trkpt>
      <trkpt lat="32.76914" lon="-7.73848">
        <ele>412.814</ele>
        <time>2011-04-27T11:56:33Z</time>
      </trkpt>
      <trkpt lat="32.77441" lon="-7.7355">
        <ele>414.29</ele>
        <time>2011-04-27T11:56:52Z</time>
      </trkpt>
      <trkpt lat="32.78525" lon="-7.72807">
        <ele>407.756</ele>
        <time>2011-04-27T11:57:33Z</time>
      </trkpt>
      <trkpt lat="32.79266" lon="-7.72209">
        <ele>410.437</ele>
        <time>2011-04-27T11:58:03Z</time>
      </trkpt>
      <trkpt lat="32.79691" lon="-7.71919">
        <ele>413.091</ele>
        <time>2011-04-27T11:58:19Z</time>
      </trkpt>
      <trkpt lat="32.79838" lon="-7.71728">
        <ele>408.409</ele>
        <time>2011-04-27T11:58:26Z</time>
      </trkpt>
      <trkpt lat="32.80225" lon="-7.71526">
        <ele>404.829</ele>
        <time>2011-04-27T11:58:40Z</time>
      </trkpt>
      <trkpt lat="32.8053" lon="-7.71454">
        <ele>405.306</ele>
        <time>2011-04-27T11:58:50Z</time>
      </trkpt>
      <trkpt lat="32.81327" lon="-7.71052">
        <ele>411.22</ele>
        <time>2011-04-27T11:59:19Z</time>
      </trkpt>
      <trkpt lat="32.81787" lon="-7.70773">
        <ele>410.041</ele>
        <time>2011-04-27T11:59:36Z</time>
      </trkpt>
      <trkpt lat="32.82206" lon="-7.7046">
        <ele>410.424</ele>
        <time>2011-04-27T11:59:52Z</time>
      </trkpt>
      <trkpt lat="32.82809" lon="-7.69896">
        <ele>415.453</ele>
        <time>2011-04-27T12:00:18Z</time>
      </trkpt>
      <trkpt lat="32.83471" lon="-7.69454">
        <ele>417.883</ele>
        <time>2011-04-27T12:00:43Z</time>
      </trkpt>
      <trkpt lat="32.85288" lon="-7.68706">
        <ele>427.1</ele>
        <time>2011-04-27T12:01:47Z</time>
      </trkpt>
      <trkpt lat="32.86373" lon="-7.68367">
        <ele>428.34</ele>
        <time>2011-04-27T12:02:24Z</time>
      </trkpt>
      <trkpt lat="32.88108" lon="-7.67943">
        <ele>432.283</ele>
        <time>2011-04-27T12:03:22Z</time>
      </trkpt>
      <trkpt lat="32.88779" lon="-7.67588">
        <ele>423.761</ele>
        <time>2011-04-27T12:03:46Z</time>
      </trkpt>
      <trkpt lat="32.8945" lon="-7.66988">
        <ele>418.673</ele>
        <time>2011-04-27T12:04:41Z</time>
      </trkpt>
      <trkpt lat="32.89418" lon="-7.66852">
        <ele>427.659</ele>
        <time>2011-04-27T13:03:30Z</time>
      </trkpt>
      <trkpt lat="32.89483" lon="-7.66768">
        <ele>437.077</ele>
        <time>2011-04-27T13:04:30Z</time>
      </trkpt>
      <trkpt lat="32.89576" lon="-7.66663">
        <ele>438.61</ele>
        <time>2011-04-27T13:04:44Z</time>
      </trkpt>
      <trkpt lat="32.89849" lon="-7.6661">
        <ele>435.403</ele>
        <time>2011-04-27T13:05:08Z</time>
      </trkpt>
      <trkpt lat="32.90196" lon="-7.66244">
        <ele>445.228</ele>
        <time>2011-04-27T13:05:30Z</time>
      </trkpt>
      <trkpt lat="32.91294" lon="-7.65066">
        <ele>452.613</ele>
        <time>2011-04-27T13:06:27Z</time>
      </trkpt>
      <trkpt lat="32.9186" lon="-7.64602">
        <ele>455.508</ele>
        <time>2011-04-27T13:06:52Z</time>
      </trkpt>
      <trkpt lat="32.92419" lon="-7.64346">
        <ele>460.448</ele>
        <time>2011-04-27T13:07:13Z</time>
      </trkpt>
      <trkpt lat="32.93314" lon="-7.63878">
        <ele>461.956</ele>
        <time>2011-04-27T13:07:47Z</time>
      </trkpt>
      <trkpt lat="32.9362" lon="-7.63683">
        <ele>461.288</ele>
        <time>2011-04-27T13:07:59Z</time>
      </trkpt>
      <trkpt lat="32.93923" lon="-7.63383">
        <ele>454.027</ele>
        <time>2011-04-27T13:08:13Z</time>
      </trkpt>
      <trkpt lat="32.94243" lon="-7.62975">
        <ele>444.029</ele>
        <time>2011-04-27T13:08:29Z</time>
      </trkpt>
      <trkpt lat="32.94847" lon="-7.61818">
        <ele>454.385</ele>
        <time>2011-04-27T13:09:09Z</time>
      </trkpt>
      <trkpt lat="32.95143" lon="-7.61449">
        <ele>466.346</ele>
        <time>2011-04-27T13:09:24Z</time>
      </trkpt>
      <trkpt lat="32.95164" lon="-7.61426">
        <ele>466.339</ele>
        <time>2011-04-27T13:09:25Z</time>
      </trkpt>
      <trkpt lat="32.9569" lon="-7.60815">
        <ele>459.315</ele>
        <time>2011-04-27T13:09:50Z</time>
      </trkpt>
      <trkpt lat="32.95922" lon="-7.60565">
        <ele>447.858</ele>
        <time>2011-04-27T13:10:01Z</time>
      </trkpt>
      <trkpt lat="32.96526" lon="-7.60089">
        <ele>430.404</ele>
        <time>2011-04-27T13:10:26Z</time>
      </trkpt>
      <trkpt lat="32.96922" lon="-7.59882">
        <ele>432.713</ele>
        <time>2011-04-27T13:10:41Z</time>
      </trkpt>
      <trkpt lat="32.97751" lon="-7.59565">
        <ele>438.125</ele>
        <time>2011-04-27T13:11:11Z</time>
      </trkpt>
      <trkpt lat="32.99464" lon="-7.5892">
        <ele>423.209</ele>
        <time>2011-04-27T13:12:13Z</time>
      </trkpt>
      <trkpt lat="33.00002" lon="-7.58861">
        <ele>424.408</ele>
        <time>2011-04-27T13:12:32Z</time>
      </trkpt>
      <trkpt lat="33.00896" lon="-7.58953">
        <ele>435.281</ele>
        <time>2011-04-27T13:13:04Z</time>
      </trkpt>
      <trkpt lat="33.01291" lon="-7.59072">
        <ele>434.224</ele>
        <time>2011-04-27T13:13:18Z</time>
      </trkpt>
      <trkpt lat="33.03437" lon="-7.59886">
        <ele>405.899</ele>
        <time>2011-04-27T13:14:36Z</time>
      </trkpt>
      <trkpt lat="33.04834" lon="-7.59866">
        <ele>398.64</ele>
        <time>2011-04-27T13:15:23Z</time>
      </trkpt>
      <trkpt lat="33.05706" lon="-7.59964">
        <ele>365.341</ele>
        <time>2011-04-27T13:15:53Z</time>
      </trkpt>
      <trkpt lat="33.06821" lon="-7.5985">
        <ele>328.032</ele>
        <time>2011-04-27T13:16:31Z</time>
      </trkpt>
      <trkpt lat="33.07271" lon="-7.59694">
        <ele>307.972</ele>
        <time>2011-04-27T13:16:47Z</time>
      </trkpt>
      <trkpt lat="33.08121" lon="-7.5911">
        <ele>295.466</ele>
        <time>2011-04-27T13:17:21Z</time>
      </trkpt>
      <trkpt lat="33.08417" lon="-7.58962">
        <ele>294.912</ele>
        <time>2011-04-27T13:17:32Z</time>
      </trkpt>
      <trkpt lat="33.09239" lon="-7.58669">
        <ele>292.351</ele>
        <time>2011-04-27T13:18:01Z</time>
      </trkpt>
      <trkpt lat="33.10091" lon="-7.5838">
        <ele>280.042</ele>
        <time>2011-04-27T13:18:31Z</time>
      </trkpt>
      <trkpt lat="33.11387" lon="-7.58101">
        <ele>281.431</ele>
        <time>2011-04-27T13:19:17Z</time>
      </trkpt>
      <trkpt lat="33.13055" lon="-7.57834">
        <ele>271.753</ele>
        <time>2011-04-27T13:20:15Z</time>
      </trkpt>
      <trkpt lat="33.15363" lon="-7.57144">
        <ele>262.031</ele>
        <time>2011-04-27T13:21:36Z</time>
      </trkpt>
      <trkpt lat="33.15789" lon="-7.57077">
        <ele>258.539</ele>
        <time>2011-04-27T13:21:51Z</time>
      </trkpt>
      <trkpt lat="33.17045" lon="-7.57075">
        <ele>253.424</ele>
        <time>2011-04-27T13:22:34Z</time>
      </trkpt>
      <trkpt lat="33.18693" lon="-7.57471">
        <ele>249.993</ele>
        <time>2011-04-27T13:23:32Z</time>
      </trkpt>
      <trkpt lat="33.19711" lon="-7.57578">
        <ele>253.118</ele>
        <time>2011-04-27T13:24:07Z</time>
      </trkpt>
      <trkpt lat="33.22459" lon="-7.57409">
        <ele>240.217</ele>
        <time>2011-04-27T13:25:42Z</time>
      </trkpt>
      <trkpt lat="33.22781" lon="-7.57344">
        <ele>233.736</ele>
        <time>2011-04-27T13:25:56Z</time>
      </trkpt>
      <trkpt lat="33.23805" lon="-7.5702">
        <ele>234.146</ele>
        <time>2011-04-27T13:29:34Z</time>
      </trkpt>
      <trkpt lat="33.23866" lon="-7.56933">
        <ele>235.417</ele>
        <time>2011-04-27T13:29:36Z</time>
      </trkpt>
      <trkpt lat="33.24352" lon="-7.56636">
        <ele>238.487</ele>
        <time>2011-04-27T13:29:56Z</time>
      </trkpt>
      <trkpt lat="33.24376" lon="-7.5662">
        <ele>238.483</ele>
        <time>2011-04-27T13:29:57Z</time>
      </trkpt>
      <trkpt lat="33.26996" lon="-7.54914">
        <ele>226.528</ele>
        <time>2011-04-27T13:32:04Z</time>
      </trkpt>
      <trkpt lat="33.27571" lon="-7.54736">
        <ele>227.419</ele>
        <time>2011-04-27T13:32:32Z</time>
      </trkpt>
      <trkpt lat="33.28393" lon="-7.54697">
        <ele>225.326</ele>
        <time>2011-04-27T13:33:14Z</time>
      </trkpt>
      <trkpt lat="33.28472" lon="-7.54701">
        <ele>223.91</ele>
        <time>2011-04-27T13:33:18Z</time>
      </trkpt>
      <trkpt lat="33.28784" lon="-7.5477">
        <ele>223.65</ele>
        <time>2011-04-27T13:33:34Z</time>
      </trkpt>
      <trkpt lat="33.29051" lon="-7.54936">
        <ele>220.478</ele>
        <time>2011-04-27T13:33:49Z</time>
      </trkpt>
      <trkpt lat="33.29485" lon="-7.5543">
        <ele>217.335</ele>
        <time>2011-04-27T13:34:23Z</time>
      </trkpt>
      <trkpt lat="33.29666" lon="-7.55713">
        <ele>225.743</ele>
        <time>2011-04-27T13:34:36Z</time>
      </trkpt>
      <trkpt lat="33.29856" lon="-7.55941">
        <ele>224.406</ele>
        <time>2011-04-27T13:34:46Z</time>
      </trkpt>
      <trkpt lat="33.30002" lon="-7.56437">
        <ele>225.063</ele>
        <time>2011-04-27T13:35:02Z</time>
      </trkpt>
      <trkpt lat="33.30035" lon="-7.56778">
        <ele>225.025</ele>
        <time>2011-04-27T13:35:12Z</time>
      </trkpt>
      <trkpt lat="33.3019" lon="-7.57294">
        <ele>227.569</ele>
        <time>2011-04-27T13:35:28Z</time>
      </trkpt>
      <trkpt lat="33.30396" lon="-7.57968">
        <ele>226.593</ele>
        <time>2011-04-27T13:35:48Z</time>
      </trkpt>
      <trkpt lat="33.30532" lon="-7.58274">
        <ele>226.909</ele>
        <time>2011-04-27T13:35:58Z</time>
      </trkpt>
      <trkpt lat="33.31577" lon="-7.60073">
        <ele>217.968</ele>
        <time>2011-04-27T13:37:03Z</time>
      </trkpt>
      <trkpt lat="33.32004" lon="-7.60422">
        <ele>215.969</ele>
        <time>2011-04-27T13:37:21Z</time>
      </trkpt>
      <trkpt lat="33.32247" lon="-7.60553">
        <ele>212.091</ele>
        <time>2011-04-27T13:37:31Z</time>
      </trkpt>
      <trkpt lat="33.32799" lon="-7.60741">
        <ele>215.074</ele>
        <time>2011-04-27T13:37:52Z</time>
      </trkpt>
      <trkpt lat="33.35373" lon="-7.61693">
        <ele>211.459</ele>
        <time>2011-04-27T13:39:29Z</time>
      </trkpt>
      <trkpt lat="33.35506" lon="-7.61741">
        <ele>210.239</ele>
        <time>2011-04-27T13:39:34Z</time>
      </trkpt>
      <trkpt lat="33.36428" lon="-7.61996">
        <ele>201.306</ele>
        <time>2011-04-27T13:40:11Z</time>
      </trkpt>
      <trkpt lat="33.38082" lon="-7.62195">
        <ele>198.119</ele>
        <time>2011-04-27T13:42:49Z</time>
      </trkpt>
      <trkpt lat="33.38741" lon="-7.61991">
        <ele>193.144</ele>
        <time>2011-04-27T13:43:21Z</time>
      </trkpt>
      <trkpt lat="33.39419" lon="-7.62046">
        <ele>197.358</ele>
        <time>2011-04-27T13:43:51Z</time>
      </trkpt>
      <trkpt lat="33.39878" lon="-7.62124">
        <ele>195.746</ele>
        <time>2011-04-27T13:44:09Z</time>
      </trkpt>
      <trkpt lat="33.40566" lon="-7.6242">
        <ele>193.907</ele>
        <time>2011-04-27T13:44:38Z</time>
      </trkpt>
      <trkpt lat="33.41149" lon="-7.62617">
        <ele>187.28</ele>
        <time>2011-04-27T13:45:02Z</time>
      </trkpt>
      <trkpt lat="33.4304" lon="-7.62794">
        <ele>177.999</ele>
        <time>2011-04-27T13:46:17Z</time>
      </trkpt>
      <trkpt lat="33.43284" lon="-7.6283">
        <ele>173.316</ele>
        <time>2011-04-27T13:46:27Z</time>
      </trkpt>
      <trkpt lat="33.44996" lon="-7.63347">
        <ele>149.2</ele>
        <time>2011-04-27T13:47:38Z</time>
      </trkpt>
      <trkpt lat="33.45247" lon="-7.63364">
        <ele>143.721</ele>
        <time>2011-04-27T13:47:48Z</time>
      </trkpt>
      <trkpt lat="33.47495" lon="-7.63341">
        <ele>127.245</ele>
        <time>2011-04-27T13:49:19Z</time>
      </trkpt>
      <trkpt lat="33.48654" lon="-7.63161">
        <ele>120.156</ele>
        <time>2011-04-27T13:50:07Z</time>
      </trkpt>
      <trkpt lat="33.49193" lon="-7.63003">
        <ele>140.5</ele>
        <time>2011-04-27T13:50:32Z</time>
      </trkpt>
      <trkpt lat="33.4951" lon="-7.62896">
        <ele>141.391</ele>
        <time>2011-04-27T13:50:48Z</time>
      </trkpt>
      <trkpt lat="33.50071" lon="-7.62805">
        <ele>135.489</ele>
        <time>2011-04-27T13:51:13Z</time>
      </trkpt>
      <trkpt lat="33.50361" lon="-7.6286">
        <ele>137.025</ele>
        <time>2011-04-27T13:51:25Z</time>
      </trkpt>
      <trkpt lat="33.50704" lon="-7.62932">
        <ele>134.11</ele>
        <time>2011-04-27T13:51:39Z</time>
      </trkpt>
      <trkpt lat="33.51617" lon="-7.63157">
        <ele>91.048</ele>
        <time>2011-04-27T13:52:30Z</time>
      </trkpt>
      <trkpt lat="33.52948" lon="-7.63686">
        <ele>104.704</ele>
        <time>2011-04-27T13:53:59Z</time>
      </trkpt>
      <trkpt lat="33.53289" lon="-7.63803">
        <ele>100.034</ele>
        <time>2011-04-27T13:54:17Z</time>
      </trkpt>
      <trkpt lat="33.53598" lon="-7.63909">
        <ele>90.387</ele>
        <time>2011-04-27T13:54:33Z</time>
      </trkpt>
      <trkpt lat="33.53771" lon="-7.63969">
        <ele>76.768</ele>
        <time>2011-04-27T13:54:43Z</time>
      </trkpt>
      <trkpt lat="33.53877" lon="-7.64003">
        <ele>69.256</ele>
        <time>2011-04-27T13:54:52Z</time>
      </trkpt>
      <trkpt lat="33.5403" lon="-7.64059">
        <ele>63.37</ele>
        <time>2011-04-27T13:56:06Z</time>
      </trkpt>
      <trkpt lat="33.53853" lon="-7.64072">
        <ele>66.482</ele>
        <time>2011-04-27T13:57:14Z</time>
      </trkpt>
      <trkpt lat="33.53959" lon="-7.64126">
        <ele>67.052</ele>
        <time>2011-04-27T14:04:11Z</time>
      </trkpt>
      <trkpt lat="33.5397" lon="-7.64153">
        <ele>66.414</ele>
        <time>2011-04-27T14:04:22Z</time>
      </trkpt>
      <trkpt lat="33.5406" lon="-7.64069">
        <ele>71.266</ele>
        <time>2011-04-27T14:07:04Z</time>
      </trkpt>
      <trkpt lat="33.54511" lon="-7.64228">
        <ele>76.728</ele>
        <time>2011-04-27T14:08:02Z</time>
      </trkpt>
      <trkpt lat="33.55009" lon="-7.64382">
        <ele>63.606</ele>
        <time>2011-04-27T14:08:37Z</time>
      </trkpt>
      <trkpt lat="33.56073" lon="-7.64456">
        <ele>50.17</ele>
        <time>2011-04-27T14:11:02Z</time>
      </trkpt>
      <trkpt lat="33.56954" lon="-7.64383">
        <ele>43.835</ele>
        <time>2011-04-27T14:13:51Z</time>
      </trkpt>
      <trkpt lat="33.5776" lon="-7.63739">
        <ele>39.319</ele>
        <time>2011-04-27T14:16:34Z</time>
      </trkpt>
      <trkpt lat="33.57848" lon="-7.63658">
        <ele>33.241</ele>
        <time>2011-04-27T14:16:43Z</time>
      </trkpt>
      <trkpt lat="33.5889" lon="-7.62654">
        <ele>29.1</ele>
        <time>2011-04-27T14:23:04Z</time>
      </trkpt>
      <trkpt lat="33.58991" lon="-7.62492">
        <ele>30.056</ele>
        <time>2011-04-27T14:24:08Z</time>
      </trkpt>
      <trkpt lat="33.59113" lon="-7.62178">
        <ele>24.019</ele>
        <time>2011-04-27T14:24:36Z</time>
      </trkpt>
      <trkpt lat="33.59466" lon="-7.61868">
        <ele>20.645</ele>
        <time>2011-04-27T14:25:46Z</time>
      </trkpt>
      <trkpt lat="33.59487" lon="-7.61837">
        <ele>18.121</ele>
        <time>2011-04-27T14:25:55Z</time>
      </trkpt>
      <trkpt lat="33.59583" lon="-7.61814">
        <ele>15.814</ele>
        <time>2011-04-27T14:26:15Z</time>
      </trkpt>
      <trkpt lat="33.59587" lon="-7.61758">
        <ele>18.712</ele>
        <time>2011-04-27T14:26:20Z</time>
      </trkpt>
      <trkpt lat="33.59727" lon="-7.61618">
        <ele>17.284</ele>
        <time>2011-04-27T14:27:44Z</time>
      </trkpt>
      <trkpt lat="33.59928" lon="-7.61386">
        <ele>10.65</ele>
        <time>2011-04-27T14:28:46Z</time>
      </trkpt>
      <trkpt lat="33.59699" lon="-7.61085">
        <ele>11.25</ele>
        <time>2011-04-27T14:31:08Z</time>
      </trkpt>
      <trkpt lat="33.59677" lon="-7.61463">
        <ele>16.894</ele>
        <time>2011-04-27T14:33:28Z</time>
      </trkpt>
      <trkpt lat="33.59722" lon="-7.6145">
        <ele>16.631</ele>
        <time>2011-04-27T14:34:43Z</time>
      </trkpt>
    </trkseg>
  </trk>
</gpx>